Observation data for McCamey on 09/12/2017      Previous  Date  Next       Current Mesonet Observations  Soil Data  Daily Summary Page  Observations in Plain Language
KMC4 120500Z 07004KT 24/10 A3009 RMK A01 T02360096  RH  041%=      5-min Rain = 0
KMC4 120501Z 07004KT 24/10 A3009 RMK A01 T02360096  RH  041%=      5-min Rain = 0
KMC4 120502Z 06004KT 24/10 A3009 RMK A01 T02360096  RH  041%=      5-min Rain = 0
KMC4 120503Z 06004KT 24/10 A3009 RMK A01 T02350096  RH  041%=      5-min Rain = 0
KMC4 120504Z 06004KT 24/10 A3009 RMK A01 T02350096  RH  041%=      5-min Rain = 0
KMC4 120505Z 06004KT 24/10 A3009 RMK A01 T02350096  RH  041%=      5-min Rain = 0
KMC4 120506Z 06004KT 24/10 A3009 RMK A01 T02350096  RH  041%=      5-min Rain = 0
KMC4 120507Z 06004KT 23/10 A3009 RMK A01 T02340096  RH  041%=      5-min Rain = 0
KMC4 120508Z 06004KT 23/10 A3009 RMK A01 T02340096  RH  042%=      5-min Rain = 0
KMC4 120509Z 06004KT 23/10 A3009 RMK A01 T02340096  RH  042%=      5-min Rain = 0
KMC4 120510Z 06004KT 23/10 A3009 RMK A01 T02340096  RH  042%=      5-min Rain = 0
KMC4 120511Z 06004KT 23/10 A3009 RMK A01 T02340096  RH  042%=      5-min Rain = 0
KMC4 120512Z 06004KT 23/10 A3009 RMK A01 T02340097  RH  042%=      5-min Rain = 0
KMC4 120513Z 06004KT 23/10 A3009 RMK A01 T02330096  RH  042%=      5-min Rain = 0
KMC4 120514Z 06004KT 23/10 A3009 RMK A01 T02340097  RH  042%=      5-min Rain = 0
KMC4 120515Z 06004KT 23/10 A3009 RMK A01 T02330096  RH  042%=      5-min Rain = 0
KMC4 120516Z 06004KT 23/10 A3009 RMK A01 T02330097  RH  042%=      5-min Rain = 0
KMC4 120517Z 06004KT 23/10 A3009 RMK A01 T02330097  RH  042%=      5-min Rain = 0
KMC4 120518Z 07005KT 23/10 A3009 RMK A01 T02320097  RH  042%=      5-min Rain = 0
KMC4 120519Z 06005KT 23/10 A3009 RMK A01 T02320097  RH  042%=      5-min Rain = 0
KMC4 120520Z 07004KT 23/10 A3009 RMK A01 T02320097  RH  042%=      5-min Rain = 0
KMC4 120521Z 07005KT 23/10 A3009 RMK A01 T02310097  RH  042%=      5-min Rain = 0
KMC4 120522Z 07004KT 23/10 A3009 RMK A01 T02310097  RH  042%=      5-min Rain = 0
KMC4 120523Z 08004KT 23/10 A3009 RMK A01 T02320097  RH  042%=      5-min Rain = 0
KMC4 120524Z 07004KT 23/10 A3009 RMK A01 T02320097  RH  042%=      5-min Rain = 0
KMC4 120525Z 07004KT 23/10 A3009 RMK A01 T02320097  RH  042%=      5-min Rain = 0
KMC4 120526Z 07004KT 23/10 A3009 RMK A01 T02320097  RH  042%=      5-min Rain = 0
KMC4 120527Z 07004KT 23/10 A3009 RMK A01 T02320098  RH  042%=      5-min Rain = 0
KMC4 120528Z 07004KT 23/10 A3009 RMK A01 T02320097  RH  042%=      5-min Rain = 0
KMC4 120529Z 06004KT 23/10 A3009 RMK A01 T02320097  RH  042%=      5-min Rain = 0
KMC4 120530Z 06005KT 23/10 A3008 RMK A01 T02320098  RH  043%=      5-min Rain = 0
KMC4 120531Z 07005KT 23/10 A3008 RMK A01 T02310097  RH  043%=      5-min Rain = 0
KMC4 120532Z 07005KT 23/10 A3008 RMK A01 T02310097  RH  043%=      5-min Rain = 0
KMC4 120533Z 07005KT 23/10 A3008 RMK A01 T02310097  RH  043%=      5-min Rain = 0
KMC4 120534Z 07004KT 23/10 A3008 RMK A01 T02310097  RH  043%=      5-min Rain = 0
KMC4 120535Z 07004KT 23/10 A3008 RMK A01 T02310097  RH  043%=      5-min Rain = 0
KMC4 120536Z 07004KT 23/10 A3008 RMK A01 T02310097  RH  043%=      5-min Rain = 0
KMC4 120537Z 07005KT 23/10 A3008 RMK A01 T02310097  RH  043%=      5-min Rain = 0
KMC4 120538Z 07005KT 23/10 A3008 RMK A01 T02310098  RH  043%=      5-min Rain = 0
KMC4 120539Z 07004KT 23/10 A3008 RMK A01 T02310097  RH  043%=      5-min Rain = 0
KMC4 120540Z 07004KT 23/10 A3008 RMK A01 T02310097  RH  043%=      5-min Rain = 0
KMC4 120541Z 07004KT 23/10 A3008 RMK A01 T02310098  RH  043%=      5-min Rain = 0
KMC4 120542Z 07004KT 23/10 A3008 RMK A01 T02310098  RH  043%=      5-min Rain = 0
KMC4 120543Z 07004KT 23/10 A3008 RMK A01 T02310098  RH  043%=      5-min Rain = 0
KMC4 120544Z 06004KT 23/10 A3008 RMK A01 T02300098  RH  043%=      5-min Rain = 0
KMC4 120545Z 07004KT 23/10 A3008 RMK A01 T02300098  RH  043%=      5-min Rain = 0
KMC4 120546Z 06004KT 23/10 A3008 RMK A01 T02300098  RH  043%=      5-min Rain = 0
KMC4 120547Z 07005KT 23/10 A3008 RMK A01 T02300098  RH  043%=      5-min Rain = 0
KMC4 120548Z 07004KT 23/10 A3008 RMK A01 T02300098  RH  043%=      5-min Rain = 0
KMC4 120549Z 08005KT 23/10 A3008 RMK A01 T02300098  RH  043%=      5-min Rain = 0
KMC4 120550Z 08004KT 23/10 A3008 RMK A01 T02300097  RH  043%=      5-min Rain = 0
KMC4 120551Z 07004KT 23/10 A3008 RMK A01 T02310098  RH  043%=      5-min Rain = 0
KMC4 120552Z 07004KT 23/10 A3008 RMK A01 T02300098  RH  043%=      5-min Rain = 0
KMC4 120553Z 06004KT 23/10 A3008 RMK A01 T02290098  RH  043%=      5-min Rain = 0
KMC4 120554Z 06004KT 23/10 A3008 RMK A01 T02290098  RH  043%=      5-min Rain = 0
KMC4 120555Z 06004KT 23/10 A3008 RMK A01 T02280098  RH  044%=      5-min Rain = 0
KMC4 120556Z 06004KT 23/10 A3008 RMK A01 T02280099  RH  044%=      5-min Rain = 0
KMC4 120557Z 05004KT 23/10 A3008 RMK A01 T02280098  RH  044%=      5-min Rain = 0
KMC4 120558Z 05004KT 23/10 A3008 RMK A01 T02280098  RH  044%=      5-min Rain = 0
KMC4 120559Z 06004KT 23/10 A3008 RMK A01 T02280098  RH  043%=      5-min Rain = 0
KMC4 120600Z 06003KT 23/10 A3008 RMK A01 T02280098  RH  043%=      5-min Rain = 0
KMC4 120601Z 06004KT 23/10 A3008 RMK A01 T02280098  RH  044%=      5-min Rain = 0
KMC4 120602Z 06004KT 23/10 A3008 RMK A01 T02280098  RH  044%=      5-min Rain = 0
KMC4 120603Z 06004KT 23/10 A3008 RMK A01 T02280098  RH  044%=      5-min Rain = 0
KMC4 120604Z 06004KT 23/10 A3008 RMK A01 T02270098  RH  044%=      5-min Rain = 0
KMC4 120605Z 06004KT 23/10 A3008 RMK A01 T02270098  RH  044%=      5-min Rain = 0
KMC4 120606Z 06004KT 23/10 A3008 RMK A01 T02280097  RH  044%=      5-min Rain = 0
KMC4 120607Z 07004KT 23/10 A3008 RMK A01 T02280098  RH  044%=      5-min Rain = 0
KMC4 120608Z 06004KT 23/10 A3008 RMK A01 T02280098  RH  044%=      5-min Rain = 0
KMC4 120609Z 05004KT 23/10 A3008 RMK A01 T02280097  RH  043%=      5-min Rain = 0
KMC4 120610Z 06004KT 23/10 A3008 RMK A01 T02280097  RH  043%=      5-min Rain = 0
KMC4 120611Z 06004KT 23/10 A3008 RMK A01 T02280098  RH  043%=      5-min Rain = 0
KMC4 120612Z 05004KT 23/10 A3008 RMK A01 T02280097  RH  043%=      5-min Rain = 0
KMC4 120613Z 05004KT 23/10 A3008 RMK A01 T02280097  RH  043%=      5-min Rain = 0
KMC4 120614Z 06004KT 23/10 A3008 RMK A01 T02280098  RH  044%=      5-min Rain = 0
KMC4 120615Z 05003KT 23/10 A3008 RMK A01 T02280098  RH  044%=      5-min Rain = 0
KMC4 120616Z 06003KT 23/10 A3008 RMK A01 T02280098  RH  044%=      5-min Rain = 0
KMC4 120617Z 06003KT 23/10 A3008 RMK A01 T02280098  RH  044%=      5-min Rain = 0
KMC4 120618Z 06004KT 23/10 A3008 RMK A01 T02270097  RH  044%=      5-min Rain = 0
KMC4 120619Z 06003KT 23/10 A3007 RMK A01 T02270098  RH  044%=      5-min Rain = 0
KMC4 120620Z 06003KT 23/10 A3007 RMK A01 T02270098  RH  044%=      5-min Rain = 0
KMC4 120621Z 07003KT 23/10 A3007 RMK A01 T02270098  RH  044%=      5-min Rain = 0
KMC4 120622Z 07004KT 23/10 A3007 RMK A01 T02270097  RH  044%=      5-min Rain = 0
KMC4 120623Z 07004KT 23/10 A3007 RMK A01 T02260098  RH  044%=      5-min Rain = 0
KMC4 120624Z 07004KT 23/10 A3007 RMK A01 T02260098  RH  044%=      5-min Rain = 0
KMC4 120625Z 07003KT 23/10 A3007 RMK A01 T02260098  RH  044%=      5-min Rain = 0
KMC4 120626Z 08003KT 23/10 A3007 RMK A01 T02260098  RH  044%=      5-min Rain = 0
KMC4 120627Z 08002KT 23/10 A3007 RMK A01 T02250098  RH  044%=      5-min Rain = 0
KMC4 120628Z 07001KT 22/10 A3007 RMK A01 T02230097  RH  044%=      5-min Rain = 0
KMC4 120629Z 08001KT 22/10 A3007 RMK A01 T02210097  RH  045%=      5-min Rain = 0
KMC4 120630Z 09001KT 22/10 A3007 RMK A01 T02210097  RH  045%=      5-min Rain = 0
KMC4 120631Z 09000KT 22/10 A3007 RMK A01 T02200097  RH  046%=      5-min Rain = 0
KMC4 120632Z 08000KT 22/10 A3007 RMK A01 T02180096  RH  046%=      5-min Rain = 0
KMC4 120633Z 08001KT 22/10 A3007 RMK A01 T02160096  RH  046%=      5-min Rain = 0
KMC4 120634Z 08001KT 21/10 A3007 RMK A01 T02140095  RH  047%=      5-min Rain = 0
KMC4 120635Z 08001KT 21/10 A3007 RMK A01 T02130095  RH  047%=      5-min Rain = 0
KMC4 120636Z 08000KT 21/10 A3007 RMK A01 T02120095  RH  047%=      5-min Rain = 0
KMC4 120637Z 06001KT 21/10 A3007 RMK A01 T02110095  RH  047%=      5-min Rain = 0
KMC4 120638Z 06001KT 21/10 A3007 RMK A01 T02100096  RH  048%=      5-min Rain = 0
KMC4 120639Z 06001KT 21/10 A3007 RMK A01 T02100095  RH  048%=      5-min Rain = 0
KMC4 120640Z 06001KT 21/10 A3007 RMK A01 T02100096  RH  048%=      5-min Rain = 0
KMC4 120641Z 07001KT 21/10 A3007 RMK A01 T02100096  RH  048%=      5-min Rain = 0
KMC4 120642Z 06001KT 21/10 A3007 RMK A01 T02100095  RH  048%=      5-min Rain = 0
KMC4 120643Z 05001KT 21/10 A3007 RMK A01 T02100095  RH  048%=      5-min Rain = 0
KMC4 120644Z 03001KT 21/10 A3007 RMK A01 T02090095  RH  048%=      5-min Rain = 0
KMC4 120645Z 03001KT 21/09 A3007 RMK A01 T02090094  RH  048%=      5-min Rain = 0
KMC4 120646Z 04002KT 21/09 A3007 RMK A01 T02070094  RH  048%=      5-min Rain = 0
KMC4 120647Z 04002KT 21/09 A3007 RMK A01 T02070094  RH  048%=      5-min Rain = 0
KMC4 120648Z 05003KT 21/10 A3007 RMK A01 T02070095  RH  049%=      5-min Rain = 0
KMC4 120649Z 05002KT 21/10 A3007 RMK A01 T02070097  RH  049%=      5-min Rain = 0
KMC4 120650Z 06003KT 21/10 A3007 RMK A01 T02080098  RH  049%=      5-min Rain = 0
KMC4 120651Z 06002KT 21/10 A3007 RMK A01 T02100098  RH  049%=      5-min Rain = 0
KMC4 120652Z 06002KT 21/10 A3007 RMK A01 T02100098  RH  049%=      5-min Rain = 0
KMC4 120653Z 06002KT 21/10 A3007 RMK A01 T02110099  RH  048%=      5-min Rain = 0
KMC4 120654Z 07002KT 21/10 A3007 RMK A01 T02120099  RH  048%=      5-min Rain = 0
KMC4 120655Z 06002KT 21/10 A3007 RMK A01 T02120098  RH  048%=      5-min Rain = 0
KMC4 120656Z 06002KT 21/10 A3007 RMK A01 T02130098  RH  048%=      5-min Rain = 0
KMC4 120657Z 06003KT 21/10 A3007 RMK A01 T02130098  RH  048%=      5-min Rain = 0
KMC4 120658Z 05003KT 21/10 A3007 RMK A01 T02130098  RH  048%=      5-min Rain = 0
KMC4 120659Z 05003KT 21/10 A3007 RMK A01 T02140098  RH  048%=      5-min Rain = 0
KMC4 120700Z 05003KT 21/10 A3007 RMK A01 T02140098  RH  048%=      5-min Rain = 0
KMC4 120701Z 05004KT 21/10 A3007 RMK A01 T02140098  RH  047%=      5-min Rain = 0
KMC4 120702Z 05004KT 22/10 A3007 RMK A01 T02150098  RH  047%=      5-min Rain = 0
KMC4 120703Z 05004KT 22/10 A3007 RMK A01 T02150098  RH  047%=      5-min Rain = 0
KMC4 120704Z 05005KT 22/10 A3007 RMK A01 T02160098  RH  047%=      5-min Rain = 0
KMC4 120705Z 05005KT 22/10 A3007 RMK A01 T02160098  RH  047%=      5-min Rain = 0
KMC4 120706Z 05005KT 22/10 A3007 RMK A01 T02170097  RH  046%=      5-min Rain = 0
KMC4 120707Z 05005KT 22/10 A3007 RMK A01 T02180097  RH  046%=      5-min Rain = 0
KMC4 120708Z 05005KT 22/10 A3007 RMK A01 T02180097  RH  046%=      5-min Rain = 0
KMC4 120709Z 05005KT 22/10 A3007 RMK A01 T02190097  RH  046%=      5-min Rain = 0
KMC4 120710Z 05004KT 22/10 A3007 RMK A01 T02190098  RH  046%=      5-min Rain = 0
KMC4 120711Z 05004KT 22/10 A3007 RMK A01 T02190098  RH  046%=      5-min Rain = 0
KMC4 120712Z 05005KT 22/10 A3007 RMK A01 T02190098  RH  046%=      5-min Rain = 0
KMC4 120713Z 05004KT 22/10 A3007 RMK A01 T02190098  RH  046%=      5-min Rain = 0
KMC4 120714Z 05004KT 22/10 A3007 RMK A01 T02190098  RH  046%=      5-min Rain = 0
KMC4 120715Z 05005KT 22/10 A3007 RMK A01 T02190098  RH  046%=      5-min Rain = 0
KMC4 120716Z 05005KT 22/10 A3007 RMK A01 T02190098  RH  046%=      5-min Rain = 0
KMC4 120717Z 05004KT 22/10 A3007 RMK A01 T02180097  RH  046%=      5-min Rain = 0
KMC4 120718Z 05004KT 22/10 A3007 RMK A01 T02190098  RH  046%=      5-min Rain = 0
KMC4 120719Z 05004KT 22/10 A3007 RMK A01 T02180097  RH  046%=      5-min Rain = 0
KMC4 120720Z 05005KT 22/10 A3007 RMK A01 T02180098  RH  046%=      5-min Rain = 0
KMC4 120721Z 05005KT 22/10 A3007 RMK A01 T02170098  RH  046%=      5-min Rain = 0
KMC4 120722Z 05005KT 22/10 A3007 RMK A01 T02170098  RH  046%=      5-min Rain = 0
KMC4 120723Z 05005KT 22/10 A3007 RMK A01 T02170098  RH  047%=      5-min Rain = 0
KMC4 120724Z 05005KT 22/10 A3007 RMK A01 T02170097  RH  046%=      5-min Rain = 0
KMC4 120725Z 05004KT 22/10 A3007 RMK A01 T02170097  RH  046%=      5-min Rain = 0
KMC4 120726Z 05004KT 22/10 A3007 RMK A01 T02170097  RH  046%=      5-min Rain = 0
KMC4 120727Z 05004KT 22/10 A3007 RMK A01 T02170098  RH  046%=      5-min Rain = 0
KMC4 120728Z 05004KT 22/10 A3007 RMK A01 T02170098  RH  047%=      5-min Rain = 0
KMC4 120729Z 05004KT 22/10 A3007 RMK A01 T02160098  RH  047%=      5-min Rain = 0
KMC4 120730Z 05004KT 22/10 A3007 RMK A01 T02160097  RH  047%=      5-min Rain = 0
KMC4 120731Z 05004KT 22/10 A3007 RMK A01 T02150097  RH  047%=      5-min Rain = 0
KMC4 120732Z 05003KT 22/10 A3007 RMK A01 T02150097  RH  047%=      5-min Rain = 0
KMC4 120733Z 05003KT 21/10 A3007 RMK A01 T02140097  RH  047%=      5-min Rain = 0
KMC4 120734Z 06002KT 21/10 A3007 RMK A01 T02130097  RH  047%=      5-min Rain = 0
KMC4 120735Z 07002KT 21/10 A3007 RMK A01 T02120096  RH  048%=      5-min Rain = 0
KMC4 120736Z 07001KT 21/10 A3007 RMK A01 T02110096  RH  048%=      5-min Rain = 0
KMC4 120737Z 07001KT 21/10 A3007 RMK A01 T02110097  RH  048%=      5-min Rain = 0
KMC4 120738Z 05002KT 21/10 A3007 RMK A01 T02110097  RH  048%=      5-min Rain = 0
KMC4 120739Z 05002KT 21/10 A3007 RMK A01 T02110097  RH  048%=      5-min Rain = 0
KMC4 120740Z 07002KT 21/10 A3007 RMK A01 T02110097  RH  048%=      5-min Rain = 0
KMC4 120741Z 05002KT 21/10 A3007 RMK A01 T02110097  RH  048%=      5-min Rain = 0
KMC4 120742Z 06002KT 21/10 A3007 RMK A01 T02110095  RH  047%=      5-min Rain = 0
KMC4 120743Z 06002KT 21/10 A3007 RMK A01 T02110096  RH  048%=      5-min Rain = 0
KMC4 120744Z 05002KT 21/10 A3007 RMK A01 T02100096  RH  048%=      5-min Rain = 0
KMC4 120745Z 06002KT 21/10 A3007 RMK A01 T02090096  RH  048%=      5-min Rain = 0
KMC4 120746Z 05002KT 21/10 A3007 RMK A01 T02090096  RH  048%=      5-min Rain = 0
KMC4 120747Z 05002KT 21/10 A3007 RMK A01 T02090097  RH  048%=      5-min Rain = 0
KMC4 120748Z 05002KT 21/10 A3006 RMK A01 T02080096  RH  049%=      5-min Rain = 0
KMC4 120749Z 04002KT 21/10 A3006 RMK A01 T02080097  RH  049%=      5-min Rain = 0
KMC4 120750Z 05002KT 21/10 A3006 RMK A01 T02080096  RH  049%=      5-min Rain = 0
KMC4 120751Z 05002KT 21/10 A3006 RMK A01 T02070096  RH  049%=      5-min Rain = 0
KMC4 120752Z 04002KT 21/10 A3006 RMK A01 T02070097  RH  049%=      5-min Rain = 0
KMC4 120753Z 04002KT 21/10 A3006 RMK A01 T02060097  RH  049%=      5-min Rain = 0
KMC4 120754Z 04002KT 21/10 A3006 RMK A01 T02060097  RH  050%=      5-min Rain = 0
KMC4 120755Z 04002KT 21/10 A3006 RMK A01 T02050097  RH  050%=      5-min Rain = 0
KMC4 120756Z 05002KT 21/10 A3006 RMK A01 T02050097  RH  050%=      5-min Rain = 0
KMC4 120757Z 04003KT 21/10 A3006 RMK A01 T02050097  RH  050%=      5-min Rain = 0
KMC4 120758Z 04003KT 21/10 A3006 RMK A01 T02060097  RH  050%=      5-min Rain = 0
KMC4 120759Z 04003KT 21/10 A3006 RMK A01 T02060097  RH  050%=      5-min Rain = 0
KMC4 120800Z 04003KT 21/10 A3006 RMK A01 T02060098  RH  050%=      5-min Rain = 0
KMC4 120801Z 04002KT 21/10 A3006 RMK A01 T02060097  RH  050%=      5-min Rain = 0
KMC4 120802Z 04002KT 21/10 A3006 RMK A01 T02070098  RH  049%=      5-min Rain = 0
KMC4 120803Z 03002KT 21/10 A3006 RMK A01 T02070097  RH  049%=      5-min Rain = 0
KMC4 120804Z 03002KT 21/10 A3006 RMK A01 T02070098  RH  049%=      5-min Rain = 0
KMC4 120805Z 02001KT 21/10 A3006 RMK A01 T02070098  RH  049%=      5-min Rain = 0
KMC4 120806Z 03001KT 21/10 A3006 RMK A01 T02060096  RH  049%=      5-min Rain = 0
KMC4 120807Z 02001KT 20/10 A3006 RMK A01 T02030095  RH  050%=      5-min Rain = 0
KMC4 120808Z 04001KT 20/10 A3006 RMK A01 T02010095  RH  050%=      5-min Rain = 0
KMC4 120809Z 05001KT 20/10 A3006 RMK A01 T02010096  RH  051%=      5-min Rain = 0
KMC4 120810Z 05002KT 20/10 A3006 RMK A01 T02010096  RH  051%=      5-min Rain = 0
KMC4 120811Z 05002KT 20/10 A3006 RMK A01 T02010097  RH  051%=      5-min Rain = 0
KMC4 120812Z 06002KT 20/10 A3006 RMK A01 T02020098  RH  051%=      5-min Rain = 0
KMC4 120813Z 07001KT 20/10 A3006 RMK A01 T02030098  RH  051%=      5-min Rain = 0
KMC4 120814Z 07001KT 20/10 A3006 RMK A01 T02030097  RH  050%=      5-min Rain = 0
KMC4 120815Z 07000KT 20/09 A3006 RMK A01 T02020094  RH  050%=      5-min Rain = 0
KMC4 120816Z 00000KT 20/09 A3006 RMK A01 T01990091  RH  050%=      5-min Rain = 0
KMC4 120817Z 00000KT 20/09 A3006 RMK A01 T01970091  RH  051%=      5-min Rain = 0
KMC4 120818Z 05000KT 20/09 A3006 RMK A01 T01950092  RH  051%=      5-min Rain = 0
KMC4 120819Z 06000KT 19/09 A3006 RMK A01 T01930091  RH  052%=      5-min Rain = 0
KMC4 120820Z 00000KT 19/09 A3006 RMK A01 T01920090  RH  052%=      5-min Rain = 0
KMC4 120821Z 00000KT 19/09 A3006 RMK A01 T01910091  RH  052%=      5-min Rain = 0
KMC4 120822Z 05001KT 19/09 A3006 RMK A01 T01900091  RH  053%=      5-min Rain = 0
KMC4 120823Z 06000KT 19/09 A3006 RMK A01 T01890091  RH  053%=      5-min Rain = 0
KMC4 120824Z 00000KT 19/09 A3006 RMK A01 T01890091  RH  053%=      5-min Rain = 0
KMC4 120825Z 00000KT 19/09 A3006 RMK A01 T01880090  RH  053%=      5-min Rain = 0
KMC4 120826Z 00000KT 19/09 A3006 RMK A01 T01880091  RH  053%=      5-min Rain = 0
KMC4 120827Z 00000KT 19/09 A3006 RMK A01 T01870091  RH  053%=      5-min Rain = 0
KMC4 120828Z 15000KT 19/09 A3006 RMK A01 T01870091  RH  053%=      5-min Rain = 0
KMC4 120829Z 00000KT 19/09 A3006 RMK A01 T01870091  RH  053%=      5-min Rain = 0
KMC4 120830Z 24000KT 19/09 A3006 RMK A01 T01860091  RH  054%=      5-min Rain = 0
KMC4 120831Z 22001KT 19/09 A3006 RMK A01 T01860090  RH  054%=      5-min Rain = 0
KMC4 120832Z 22001KT 19/09 A3006 RMK A01 T01860090  RH  054%=      5-min Rain = 0
KMC4 120833Z 22000KT 19/09 A3006 RMK A01 T01850090  RH  054%=      5-min Rain = 0
KMC4 120834Z 00000KT 19/09 A3006 RMK A01 T01850090  RH  054%=      5-min Rain = 0
KMC4 120835Z 00000KT 19/09 A3006 RMK A01 T01850091  RH  054%=      5-min Rain = 0
KMC4 120836Z 00000KT 19/09 A3006 RMK A01 T01850090  RH  054%=      5-min Rain = 0
KMC4 120837Z 00000KT 19/09 A3006 RMK A01 T01850091  RH  054%=      5-min Rain = 0
KMC4 120838Z 00000KT 19/09 A3006 RMK A01 T01850091  RH  054%=      5-min Rain = 0
KMC4 120839Z 00000KT 19/09 A3006 RMK A01 T01860091  RH  054%=      5-min Rain = 0
KMC4 120840Z 00000KT 19/09 A3006 RMK A01 T01860092  RH  054%=      5-min Rain = 0
KMC4 120841Z 00000KT 19/09 A3006 RMK A01 T01850091  RH  054%=      5-min Rain = 0
KMC4 120842Z 00000KT 19/09 A3006 RMK A01 T01850092  RH  054%=      5-min Rain = 0
KMC4 120843Z 00000KT 19/09 A3006 RMK A01 T01850092  RH  055%=      5-min Rain = 0
KMC4 120844Z 00000KT 19/09 A3006 RMK A01 T01850092  RH  055%=      5-min Rain = 0
KMC4 120845Z 00000KT 18/09 A3006 RMK A01 T01840092  RH  055%=      5-min Rain = 0
KMC4 120846Z 00000KT 18/09 A3006 RMK A01 T01840092  RH  055%=      5-min Rain = 0
KMC4 120847Z 00000KT 18/09 A3006 RMK A01 T01840092  RH  055%=      5-min Rain = 0
KMC4 120848Z 00000KT 18/09 A3005 RMK A01 T01840092  RH  055%=      5-min Rain = 0
KMC4 120849Z 00000KT 18/09 A3005 RMK A01 T01840092  RH  055%=      5-min Rain = 0
KMC4 120850Z 00000KT 19/09 A3005 RMK A01 T01850092  RH  055%=      5-min Rain = 0
KMC4 120851Z 00000KT 19/09 A3005 RMK A01 T01850092  RH  055%=      5-min Rain = 0
KMC4 120852Z 00000KT 19/09 A3005 RMK A01 T01850092  RH  055%=      5-min Rain = 0
KMC4 120853Z 00000KT 19/09 A3005 RMK A01 T01850092  RH  055%=      5-min Rain = 0
KMC4 120854Z 00000KT 19/09 A3005 RMK A01 T01850092  RH  054%=      5-min Rain = 0
KMC4 120855Z 00000KT 19/09 A3005 RMK A01 T01860092  RH  054%=      5-min Rain = 0
KMC4 120856Z 00000KT 19/09 A3005 RMK A01 T01860092  RH  054%=      5-min Rain = 0
KMC4 120857Z 00000KT 19/09 A3005 RMK A01 T01860092  RH  054%=      5-min Rain = 0
KMC4 120858Z 00000KT 19/09 A3005 RMK A01 T01860092  RH  054%=      5-min Rain = 0
KMC4 120859Z 00000KT 19/09 A3005 RMK A01 T01860092  RH  054%=      5-min Rain = 0
KMC4 120900Z 00000KT 19/09 A3005 RMK A01 T01860092  RH  054%=      5-min Rain = 0
KMC4 120901Z 00000KT 19/09 A3005 RMK A01 T01860092  RH  054%=      5-min Rain = 0
KMC4 120902Z 07000KT 19/09 A3005 RMK A01 T01860092  RH  054%=      5-min Rain = 0
KMC4 120903Z 06001KT 19/09 A3005 RMK A01 T01860092  RH  054%=      5-min Rain = 0
KMC4 120904Z 06002KT 19/09 A3005 RMK A01 T01860092  RH  054%=      5-min Rain = 0
KMC4 120905Z 06002KT 19/09 A3005 RMK A01 T01860092  RH  054%=      5-min Rain = 0
KMC4 120906Z 05002KT 19/09 A3005 RMK A01 T01860092  RH  054%=      5-min Rain = 0
KMC4 120907Z 05002KT 19/09 A3005 RMK A01 T01870093  RH  054%=      5-min Rain = 0
KMC4 120908Z 05002KT 19/09 A3005 RMK A01 T01860092  RH  054%=      5-min Rain = 0
KMC4 120909Z 05002KT 19/09 A3005 RMK A01 T01860093  RH  054%=      5-min Rain = 0
KMC4 120910Z 05002KT 19/09 A3005 RMK A01 T01860094  RH  055%=      5-min Rain = 0
KMC4 120911Z 05001KT 19/09 A3005 RMK A01 T01860094  RH  055%=      5-min Rain = 0
KMC4 120912Z 05001KT 19/09 A3005 RMK A01 T01860094  RH  055%=      5-min Rain = 0
KMC4 120913Z 04001KT 19/09 A3005 RMK A01 T01860094  RH  055%=      5-min Rain = 0
KMC4 120914Z 04001KT 19/10 A3005 RMK A01 T01860095  RH  055%=      5-min Rain = 0
KMC4 120915Z 04002KT 19/10 A3005 RMK A01 T01850095  RH  056%=      5-min Rain = 0
KMC4 120916Z 04002KT 19/09 A3005 RMK A01 T01850094  RH  055%=      5-min Rain = 0
KMC4 120917Z 04002KT 18/09 A3005 RMK A01 T01840093  RH  055%=      5-min Rain = 0
KMC4 120918Z 04001KT 18/09 A3005 RMK A01 T01840093  RH  055%=      5-min Rain = 0
KMC4 120919Z 04001KT 18/09 A3005 RMK A01 T01840094  RH  056%=      5-min Rain = 0
KMC4 120920Z 04001KT 18/10 A3005 RMK A01 T01840095  RH  056%=      5-min Rain = 0
KMC4 120921Z 04001KT 18/10 A3005 RMK A01 T01840095  RH  056%=      5-min Rain = 0
KMC4 120922Z 04000KT 18/10 A3005 RMK A01 T01830095  RH  056%=      5-min Rain = 0
KMC4 120923Z 00000KT 18/10 A3005 RMK A01 T01830095  RH  056%=      5-min Rain = 0
KMC4 120924Z 00000KT 18/10 A3005 RMK A01 T01830095  RH  056%=      5-min Rain = 0
KMC4 120925Z 00000KT 18/10 A3004 RMK A01 T01830095  RH  056%=      5-min Rain = 0
KMC4 120926Z 03001KT 18/10 A3004 RMK A01 T01830095  RH  056%=      5-min Rain = 0
KMC4 120927Z 03001KT 18/10 A3004 RMK A01 T01840095  RH  056%=      5-min Rain = 0
KMC4 120928Z 04001KT 18/10 A3004 RMK A01 T01840096  RH  056%=      5-min Rain = 0
KMC4 120929Z 05001KT 18/10 A3004 RMK A01 T01840096  RH  056%=      5-min Rain = 0
KMC4 120930Z 05001KT 18/10 A3004 RMK A01 T01840095  RH  056%=      5-min Rain = 0
KMC4 120931Z 05000KT 18/10 A3004 RMK A01 T01840095  RH  056%=      5-min Rain = 0
KMC4 120932Z 24000KT 18/10 A3004 RMK A01 T01840095  RH  056%=      5-min Rain = 0
KMC4 120933Z 24001KT 18/09 A3004 RMK A01 T01840092  RH  055%=      5-min Rain = 0
KMC4 120934Z 24002KT 18/09 A3005 RMK A01 T01810088  RH  055%=      5-min Rain = 0
KMC4 120935Z 24002KT 18/09 A3005 RMK A01 T01780087  RH  055%=      5-min Rain = 0
KMC4 120936Z 25002KT 18/09 A3005 RMK A01 T01750087  RH  056%=      5-min Rain = 0
KMC4 120937Z 26002KT 17/09 A3005 RMK A01 T01740088  RH  057%=      5-min Rain = 0
KMC4 120938Z 26002KT 17/09 A3005 RMK A01 T01730087  RH  057%=      5-min Rain = 0
KMC4 120939Z 26002KT 17/09 A3005 RMK A01 T01710087  RH  058%=      5-min Rain = 0
KMC4 120940Z 26002KT 17/09 A3005 RMK A01 T01700087  RH  058%=      5-min Rain = 0
KMC4 120941Z 27002KT 17/09 A3005 RMK A01 T01690086  RH  058%=      5-min Rain = 0
KMC4 120942Z 25003KT 17/09 A3005 RMK A01 T01690086  RH  058%=      5-min Rain = 0
KMC4 120943Z 24003KT 17/09 A3005 RMK A01 T01690087  RH  059%=      5-min Rain = 0
KMC4 120944Z 23003KT 17/09 A3005 RMK A01 T01690087  RH  059%=      5-min Rain = 0
KMC4 120945Z 24003KT 17/09 A3005 RMK A01 T01690088  RH  059%=      5-min Rain = 0
KMC4 120946Z 23003KT 17/09 A3004 RMK A01 T01690088  RH  059%=      5-min Rain = 0
KMC4 120947Z 23002KT 17/09 A3004 RMK A01 T01690088  RH  059%=      5-min Rain = 0
KMC4 120948Z 23002KT 17/09 A3004 RMK A01 T01690088  RH  059%=      5-min Rain = 0
KMC4 120949Z 23002KT 17/09 A3004 RMK A01 T01700088  RH  059%=      5-min Rain = 0
KMC4 120950Z 22001KT 17/09 A3004 RMK A01 T01700088  RH  058%=      5-min Rain = 0
KMC4 120951Z 22001KT 17/09 A3004 RMK A01 T01700088  RH  059%=      5-min Rain = 0
KMC4 120952Z 22000KT 17/09 A3004 RMK A01 T01710088  RH  058%=      5-min Rain = 0
KMC4 120953Z 23001KT 17/09 A3004 RMK A01 T01710088  RH  058%=      5-min Rain = 0
KMC4 120954Z 25001KT 17/09 A3004 RMK A01 T01710089  RH  058%=      5-min Rain = 0
KMC4 120955Z 25001KT 17/09 A3004 RMK A01 T01720091  RH  059%=      5-min Rain = 0
KMC4 120956Z 26000KT 17/09 A3004 RMK A01 T01730091  RH  059%=      5-min Rain = 0
KMC4 120957Z 27000KT 17/09 A3004 RMK A01 T01740092  RH  059%=      5-min Rain = 0
KMC4 120958Z 00000KT 18/09 A3004 RMK A01 T01750091  RH  058%=      5-min Rain = 0
KMC4 120959Z 00000KT 17/09 A3004 RMK A01 T01740091  RH  058%=      5-min Rain = 0
KMC4 121000Z 00000KT 17/09 A3004 RMK A01 T01740092  RH  058%=      5-min Rain = 0
KMC4 121001Z 33000KT 18/09 A3004 RMK A01 T01750093  RH  058%=      5-min Rain = 0
KMC4 121002Z 33001KT 18/09 A3004 RMK A01 T01760092  RH  058%=      5-min Rain = 0
KMC4 121003Z 33001KT 18/09 A3004 RMK A01 T01780093  RH  058%=      5-min Rain = 0
KMC4 121004Z 33002KT 18/09 A3004 RMK A01 T01780093  RH  057%=      5-min Rain = 0
KMC4 121005Z 34002KT 18/09 A3004 RMK A01 T01780092  RH  057%=      5-min Rain = 0
KMC4 121006Z 34002KT 18/09 A3004 RMK A01 T01780092  RH  057%=      5-min Rain = 0
KMC4 121007Z 35002KT 18/09 A3004 RMK A01 T01790091  RH  057%=      5-min Rain = 0
KMC4 121008Z 36002KT 18/09 A3004 RMK A01 T01790092  RH  056%=      5-min Rain = 0
KMC4 121009Z 00002KT 18/09 A3004 RMK A01 T01800092  RH  056%=      5-min Rain = 0
KMC4 121010Z 00002KT 18/09 A3004 RMK A01 T01800092  RH  056%=      5-min Rain = 0
KMC4 121011Z 01002KT 18/09 A3004 RMK A01 T01810093  RH  056%=      5-min Rain = 0
KMC4 121012Z 01003KT 18/09 A3004 RMK A01 T01810093  RH  056%=      5-min Rain = 0
KMC4 121013Z 01003KT 18/09 A3004 RMK A01 T01810093  RH  057%=      5-min Rain = 0
KMC4 121014Z 01003KT 18/09 A3004 RMK A01 T01810094  RH  057%=      5-min Rain = 0
KMC4 121015Z 01002KT 18/09 A3004 RMK A01 T01800093  RH  057%=      5-min Rain = 0
KMC4 121016Z 01002KT 18/09 A3004 RMK A01 T01800093  RH  057%=      5-min Rain = 0
KMC4 121017Z 02002KT 18/09 A3004 RMK A01 T01790093  RH  057%=      5-min Rain = 0
KMC4 121018Z 02002KT 18/09 A3004 RMK A01 T01790093  RH  057%=      5-min Rain = 0
KMC4 121019Z 02001KT 18/09 A3004 RMK A01 T01790093  RH  057%=      5-min Rain = 0
KMC4 121020Z 02001KT 18/09 A3004 RMK A01 T01780093  RH  057%=      5-min Rain = 0
KMC4 121021Z 02001KT 18/09 A3004 RMK A01 T01780093  RH  057%=      5-min Rain = 0
KMC4 121022Z 02001KT 18/09 A3004 RMK A01 T01780093  RH  057%=      5-min Rain = 0
KMC4 121023Z 02001KT 18/09 A3004 RMK A01 T01780093  RH  057%=      5-min Rain = 0
KMC4 121024Z 02001KT 18/09 A3004 RMK A01 T01780093  RH  057%=      5-min Rain = 0
KMC4 121025Z 02000KT 18/09 A3004 RMK A01 T01780092  RH  057%=      5-min Rain = 0
KMC4 121026Z 02000KT 18/09 A3004 RMK A01 T01780092  RH  057%=      5-min Rain = 0
KMC4 121027Z 02000KT 18/09 A3004 RMK A01 T01790093  RH  057%=      5-min Rain = 0
KMC4 121028Z 00000KT 18/09 A3004 RMK A01 T01790092  RH  057%=      5-min Rain = 0
KMC4 121029Z 03000KT 18/09 A3004 RMK A01 T01790092  RH  057%=      5-min Rain = 0
KMC4 121030Z 04001KT 18/09 A3004 RMK A01 T01790093  RH  057%=      5-min Rain = 0
KMC4 121031Z 04000KT 18/09 A3004 RMK A01 T01790093  RH  057%=      5-min Rain = 0
KMC4 121032Z 04000KT 18/09 A3004 RMK A01 T01790093  RH  057%=      5-min Rain = 0
KMC4 121033Z 04001KT 18/09 A3004 RMK A01 T01800094  RH  057%=      5-min Rain = 0
KMC4 121034Z 04002KT 18/09 A3004 RMK A01 T01800094  RH  057%=      5-min Rain = 0
KMC4 121035Z 03002KT 18/09 A3004 RMK A01 T01800094  RH  057%=      5-min Rain = 0
KMC4 121036Z 03001KT 18/09 A3004 RMK A01 T01800094  RH  057%=      5-min Rain = 0
KMC4 121037Z 03001KT 18/09 A3004 RMK A01 T01790094  RH  057%=      5-min Rain = 0
KMC4 121038Z 03002KT 18/10 A3004 RMK A01 T01790095  RH  058%=      5-min Rain = 0
KMC4 121039Z 03002KT 18/09 A3004 RMK A01 T01790094  RH  058%=      5-min Rain = 0
KMC4 121040Z 03002KT 18/09 A3004 RMK A01 T01780094  RH  058%=      5-min Rain = 0
KMC4 121041Z 03002KT 18/09 A3004 RMK A01 T01770094  RH  058%=      5-min Rain = 0
KMC4 121042Z 03002KT 18/09 A3004 RMK A01 T01770094  RH  058%=      5-min Rain = 0
KMC4 121043Z 03002KT 18/09 A3005 RMK A01 T01770094  RH  058%=      5-min Rain = 0
KMC4 121044Z 03002KT 18/10 A3005 RMK A01 T01760095  RH  059%=      5-min Rain = 0
KMC4 121045Z 04002KT 18/10 A3005 RMK A01 T01760095  RH  059%=      5-min Rain = 0
KMC4 121046Z 03003KT 18/10 A3005 RMK A01 T01780095  RH  058%=      5-min Rain = 0
KMC4 121047Z 04003KT 18/10 A3005 RMK A01 T01780095  RH  058%=      5-min Rain = 0
KMC4 121048Z 04003KT 18/10 A3005 RMK A01 T01790095  RH  058%=      5-min Rain = 0
KMC4 121049Z 04003KT 18/10 A3005 RMK A01 T01800095  RH  058%=      5-min Rain = 0
KMC4 121050Z 04002KT 18/10 A3005 RMK A01 T01800095  RH  058%=      5-min Rain = 0
KMC4 121051Z 04002KT 18/10 A3005 RMK A01 T01800095  RH  057%=      5-min Rain = 0
KMC4 121052Z 03003KT 18/10 A3005 RMK A01 T01810095  RH  057%=      5-min Rain = 0
KMC4 121053Z 03003KT 18/10 A3005 RMK A01 T01810095  RH  057%=      5-min Rain = 0
KMC4 121054Z 03003KT 18/10 A3005 RMK A01 T01810095  RH  057%=      5-min Rain = 0
KMC4 121055Z 03004KT 18/09 A3005 RMK A01 T01810094  RH  057%=      5-min Rain = 0
KMC4 121056Z 03003KT 18/10 A3005 RMK A01 T01800095  RH  057%=      5-min Rain = 0
KMC4 121057Z 03003KT 18/09 A3004 RMK A01 T01800094  RH  057%=      5-min Rain = 0
KMC4 121058Z 03003KT 18/09 A3004 RMK A01 T01790094  RH  057%=      5-min Rain = 0
KMC4 121059Z 03003KT 18/09 A3005 RMK A01 T01790093  RH  057%=      5-min Rain = 0
KMC4 121100Z 03003KT 18/09 A3005 RMK A01 T01790094  RH  057%=      5-min Rain = 0
KMC4 121101Z 03004KT 18/09 A3005 RMK A01 T01790093  RH  057%=      5-min Rain = 0
KMC4 121102Z 03003KT 18/09 A3005 RMK A01 T01780093  RH  057%=      5-min Rain = 0
KMC4 121103Z 03003KT 18/09 A3005 RMK A01 T01780093  RH  057%=      5-min Rain = 0
KMC4 121104Z 02003KT 18/09 A3005 RMK A01 T01780093  RH  057%=      5-min Rain = 0
KMC4 121105Z 03003KT 18/09 A3005 RMK A01 T01790093  RH  057%=      5-min Rain = 0
KMC4 121106Z 04002KT 18/09 A3005 RMK A01 T01790093  RH  057%=      5-min Rain = 0
KMC4 121107Z 02002KT 18/09 A3005 RMK A01 T01780093  RH  057%=      5-min Rain = 0
KMC4 121108Z 02001KT 18/09 A3005 RMK A01 T01780093  RH  057%=      5-min Rain = 0
KMC4 121109Z 03001KT 18/09 A3005 RMK A01 T01780093  RH  057%=      5-min Rain = 0
KMC4 121110Z 03000KT 18/09 A3005 RMK A01 T01780093  RH  058%=      5-min Rain = 0
KMC4 121111Z 00000KT 18/09 A3005 RMK A01 T01780093  RH  058%=      5-min Rain = 0
KMC4 121112Z 00000KT 18/09 A3005 RMK A01 T01780093  RH  057%=      5-min Rain = 0
KMC4 121113Z 00000KT 18/09 A3005 RMK A01 T01770091  RH  057%=      5-min Rain = 0
KMC4 121114Z 00000KT 17/09 A3005 RMK A01 T01740090  RH  058%=      5-min Rain = 0
KMC4 121115Z 00000KT 17/09 A3005 RMK A01 T01710089  RH  059%=      5-min Rain = 0
KMC4 121116Z 00000KT 17/09 A3005 RMK A01 T01690088  RH  059%=      5-min Rain = 0
KMC4 121117Z 00000KT 17/09 A3005 RMK A01 T01660087  RH  060%=      5-min Rain = 0
KMC4 121118Z 00000KT 17/09 A3005 RMK A01 T01650087  RH  060%=      5-min Rain = 0
KMC4 121119Z 00000KT 16/09 A3005 RMK A01 T01630088  RH  061%=      5-min Rain = 0
KMC4 121120Z 00000KT 16/09 A3005 RMK A01 T01620088  RH  061%=      5-min Rain = 0
KMC4 121121Z 00000KT 16/09 A3005 RMK A01 T01620087  RH  061%=      5-min Rain = 0
KMC4 121122Z 00000KT 16/09 A3005 RMK A01 T01610086  RH  061%=      5-min Rain = 0
KMC4 121123Z 00000KT 16/09 A3005 RMK A01 T01610087  RH  061%=      5-min Rain = 0
KMC4 121124Z 00000KT 16/09 A3005 RMK A01 T01610087  RH  061%=      5-min Rain = 0
KMC4 121125Z 00000KT 16/09 A3005 RMK A01 T01610087  RH  061%=      5-min Rain = 0
KMC4 121126Z 00000KT 16/09 A3005 RMK A01 T01610087  RH  061%=      5-min Rain = 0
KMC4 121127Z 00000KT 16/09 A3005 RMK A01 T01610087  RH  062%=      5-min Rain = 0
KMC4 121128Z 00000KT 16/09 A3005 RMK A01 T01610087  RH  061%=      5-min Rain = 0
KMC4 121129Z 00000KT 16/09 A3005 RMK A01 T01610087  RH  062%=      5-min Rain = 0
KMC4 121130Z 00000KT 16/09 A3005 RMK A01 T01610088  RH  062%=      5-min Rain = 0
KMC4 121131Z 00000KT 16/09 A3005 RMK A01 T01610088  RH  062%=      5-min Rain = 0
KMC4 121132Z 00000KT 16/09 A3005 RMK A01 T01620088  RH  062%=      5-min Rain = 0
KMC4 121133Z 00000KT 16/09 A3005 RMK A01 T01620087  RH  061%=      5-min Rain = 0
KMC4 121134Z 00000KT 16/09 A3005 RMK A01 T01620087  RH  061%=      5-min Rain = 0
KMC4 121135Z 03001KT 16/09 A3005 RMK A01 T01610087  RH  061%=      5-min Rain = 0
KMC4 121136Z 03001KT 16/09 A3005 RMK A01 T01610087  RH  061%=      5-min Rain = 0
KMC4 121137Z 03001KT 16/09 A3005 RMK A01 T01610087  RH  062%=      5-min Rain = 0
KMC4 121138Z 02001KT 16/09 A3005 RMK A01 T01610087  RH  061%=      5-min Rain = 0
KMC4 121139Z 02001KT 16/09 A3005 RMK A01 T01610087  RH  062%=      5-min Rain = 0
KMC4 121140Z 01001KT 16/09 A3005 RMK A01 T01610088  RH  062%=      5-min Rain = 0
KMC4 121141Z 01001KT 16/09 A3005 RMK A01 T01610089  RH  062%=      5-min Rain = 0
KMC4 121142Z 00001KT 16/09 A3005 RMK A01 T01610089  RH  062%=      5-min Rain = 0
KMC4 121143Z 00000KT 16/09 A3005 RMK A01 T01620089  RH  062%=      5-min Rain = 0
KMC4 121144Z 36001KT 16/09 A3005 RMK A01 T01620089  RH  062%=      5-min Rain = 0
KMC4 121145Z 35001KT 16/09 A3005 RMK A01 T01630089  RH  062%=      5-min Rain = 0
KMC4 121146Z 35000KT 16/09 A3005 RMK A01 T01630089  RH  061%=      5-min Rain = 0
KMC4 121147Z 33000KT 16/09 A3005 RMK A01 T01640089  RH  061%=      5-min Rain = 0
KMC4 121148Z 33001KT 17/09 A3006 RMK A01 T01650090  RH  061%=      5-min Rain = 0
KMC4 121149Z 33000KT 17/09 A3006 RMK A01 T01650090  RH  061%=      5-min Rain = 0
KMC4 121150Z 00000KT 17/09 A3006 RMK A01 T01650090  RH  061%=      5-min Rain = 0
KMC4 121151Z 33000KT 17/09 A3006 RMK A01 T01660091  RH  061%=      5-min Rain = 0
KMC4 121152Z 33000KT 17/09 A3006 RMK A01 T01660090  RH  061%=      5-min Rain = 0
KMC4 121153Z 00000KT 17/09 A3006 RMK A01 T01660090  RH  061%=      5-min Rain = 0
KMC4 121154Z 36000KT 17/09 A3006 RMK A01 T01660089  RH  060%=      5-min Rain = 0
KMC4 121155Z 00000KT 17/09 A3006 RMK A01 T01670090  RH  060%=      5-min Rain = 0
KMC4 121156Z 00000KT 17/09 A3006 RMK A01 T01670091  RH  061%=      5-min Rain = 0
KMC4 121157Z 00000KT 17/09 A3006 RMK A01 T01670091  RH  061%=      5-min Rain = 0
KMC4 121158Z 00000KT 17/09 A3006 RMK A01 T01670090  RH  061%=      5-min Rain = 0
KMC4 121159Z 00000KT 17/09 A3006 RMK A01 T01670090  RH  061%=      5-min Rain = 0
KMC4 121200Z 00000KT 17/09 A3006 RMK A01 T01670091  RH  061%=      5-min Rain = 0
KMC4 121201Z 00000KT 17/09 A3006 RMK A01 T01660091  RH  061%=      5-min Rain = 0
KMC4 121202Z 00000KT 17/09 A3006 RMK A01 T01660091  RH  061%=      5-min Rain = 0
KMC4 121203Z 00000KT 17/09 A3006 RMK A01 T01660091  RH  061%=      5-min Rain = 0
KMC4 121204Z 00000KT 17/09 A3006 RMK A01 T01660091  RH  061%=      5-min Rain = 0
KMC4 121205Z 00000KT 17/09 A3006 RMK A01 T01660091  RH  061%=      5-min Rain = 0
KMC4 121206Z 00001KT 17/09 A3006 RMK A01 T01660091  RH  061%=      5-min Rain = 0
KMC4 121207Z 00001KT 17/09 A3006 RMK A01 T01660091  RH  061%=      5-min Rain = 0
KMC4 121208Z 00000KT 17/09 A3006 RMK A01 T01660091  RH  061%=      5-min Rain = 0
KMC4 121209Z 00000KT 17/09 A3006 RMK A01 T01660091  RH  061%=      5-min Rain = 0
KMC4 121210Z 00000KT 17/09 A3006 RMK A01 T01660092  RH  061%=      5-min Rain = 0
KMC4 121211Z 00000KT 17/09 A3006 RMK A01 T01660092  RH  061%=      5-min Rain = 0
KMC4 121212Z 00000KT 17/09 A3006 RMK A01 T01660092  RH  061%=      5-min Rain = 0
KMC4 121213Z 00000KT 17/09 A3006 RMK A01 T01670092  RH  061%=      5-min Rain = 0
KMC4 121214Z 00000KT 17/09 A3006 RMK A01 T01670092  RH  061%=      5-min Rain = 0
KMC4 121215Z 00000KT 17/09 A3006 RMK A01 T01670092  RH  061%=      5-min Rain = 0
KMC4 121216Z 00000KT 17/09 A3006 RMK A01 T01670092  RH  061%=      5-min Rain = 0
KMC4 121217Z 00000KT 17/09 A3006 RMK A01 T01670092  RH  061%=      5-min Rain = 0
KMC4 121218Z 00000KT 17/09 A3006 RMK A01 T01670093  RH  061%=      5-min Rain = 0
KMC4 121219Z 04000KT 17/09 A3006 RMK A01 T01670092  RH  061%=      5-min Rain = 0
KMC4 121220Z 04001KT 17/09 A3006 RMK A01 T01670093  RH  061%=      5-min Rain = 0
KMC4 121221Z 03001KT 17/09 A3006 RMK A01 T01670092  RH  061%=      5-min Rain = 0
KMC4 121222Z 03001KT 17/09 A3006 RMK A01 T01670092  RH  061%=      5-min Rain = 0
KMC4 121223Z 03001KT 17/09 A3006 RMK A01 T01670092  RH  061%=      5-min Rain = 0
KMC4 121224Z 03002KT 17/09 A3006 RMK A01 T01670090  RH  061%=      5-min Rain = 0
KMC4 121225Z 03001KT 17/09 A3006 RMK A01 T01670090  RH  060%=      5-min Rain = 0
KMC4 121226Z 02001KT 17/09 A3006 RMK A01 T01670091  RH  061%=      5-min Rain = 0
KMC4 121227Z 02002KT 17/09 A3006 RMK A01 T01660092  RH  061%=      5-min Rain = 0
KMC4 121228Z 02002KT 17/09 A3006 RMK A01 T01660093  RH  062%=      5-min Rain = 0
KMC4 121229Z 02001KT 17/09 A3006 RMK A01 T01660093  RH  062%=      5-min Rain = 0
KMC4 121230Z 02002KT 17/09 A3006 RMK A01 T01660093  RH  062%=      5-min Rain = 0
KMC4 121231Z 02003KT 17/09 A3006 RMK A01 T01670093  RH  062%=      5-min Rain = 0
KMC4 121232Z 02003KT 17/09 A3006 RMK A01 T01680094  RH  061%=      5-min Rain = 0
KMC4 121233Z 02002KT 17/09 A3006 RMK A01 T01690094  RH  061%=      5-min Rain = 0
KMC4 121234Z 02002KT 17/09 A3006 RMK A01 T01690094  RH  061%=      5-min Rain = 0
KMC4 121235Z 02002KT 17/09 A3006 RMK A01 T01690093  RH  061%=      5-min Rain = 0
KMC4 121236Z 03002KT 17/09 A3006 RMK A01 T01690094  RH  061%=      5-min Rain = 0
KMC4 121237Z 03002KT 17/09 A3006 RMK A01 T01690094  RH  061%=      5-min Rain = 0
KMC4 121238Z 03002KT 17/09 A3006 RMK A01 T01700094  RH  061%=      5-min Rain = 0
KMC4 121239Z 02002KT 17/09 A3006 RMK A01 T01690093  RH  061%=      5-min Rain = 0
KMC4 121240Z 02002KT 17/09 A3006 RMK A01 T01700093  RH  061%=      5-min Rain = 0
KMC4 121241Z 02002KT 17/09 A3006 RMK A01 T01700093  RH  061%=      5-min Rain = 0
KMC4 121242Z 02002KT 17/09 A3006 RMK A01 T01700094  RH  061%=      5-min Rain = 0
KMC4 121243Z 02003KT 17/09 A3006 RMK A01 T01700094  RH  061%=      5-min Rain = 0
KMC4 121244Z 02003KT 17/09 A3006 RMK A01 T01700094  RH  061%=      5-min Rain = 0
KMC4 121245Z 03003KT 17/09 A3006 RMK A01 T01700094  RH  061%=      5-min Rain = 0
KMC4 121246Z 03002KT 17/09 A3006 RMK A01 T01710094  RH  060%=      5-min Rain = 0
KMC4 121247Z 04002KT 17/09 A3006 RMK A01 T01710094  RH  060%=      5-min Rain = 0
KMC4 121248Z 05001KT 17/10 A3006 RMK A01 T01720095  RH  060%=      5-min Rain = 0
KMC4 121249Z 05001KT 17/09 A3006 RMK A01 T01720094  RH  060%=      5-min Rain = 0
KMC4 121250Z 06001KT 17/09 A3006 RMK A01 T01720093  RH  060%=      5-min Rain = 0
KMC4 121251Z 08000KT 17/09 A3006 RMK A01 T01720093  RH  060%=      5-min Rain = 0
KMC4 121252Z 08001KT 17/09 A3006 RMK A01 T01710090  RH  059%=      5-min Rain = 0
KMC4 121253Z 08001KT 17/09 A3006 RMK A01 T01690090  RH  060%=      5-min Rain = 0
KMC4 121254Z 10001KT 17/09 A3006 RMK A01 T01690091  RH  060%=      5-min Rain = 0
KMC4 121255Z 10001KT 17/09 A3006 RMK A01 T01680093  RH  061%=      5-min Rain = 0
KMC4 121256Z 11001KT 17/10 A3006 RMK A01 T01680095  RH  062%=      5-min Rain = 0
KMC4 121257Z 13002KT 17/09 A3006 RMK A01 T01680094  RH  062%=      5-min Rain = 0
KMC4 121258Z 14002KT 17/09 A3006 RMK A01 T01670093  RH  062%=      5-min Rain = 0
KMC4 121259Z 14001KT 17/09 A3006 RMK A01 T01670093  RH  061%=      5-min Rain = 0
KMC4 121300Z 14001KT 17/09 A3006 RMK A01 T01670092  RH  061%=      5-min Rain = 0
KMC4 121301Z 16001KT 17/09 A3006 RMK A01 T01670092  RH  061%=      5-min Rain = 0
KMC4 121302Z 18001KT 17/09 A3006 RMK A01 T01660092  RH  061%=      5-min Rain = 0
KMC4 121303Z 17001KT 17/09 A3006 RMK A01 T01660092  RH  061%=      5-min Rain = 0
KMC4 121304Z 17001KT 17/09 A3006 RMK A01 T01650091  RH  061%=      5-min Rain = 0
KMC4 121305Z 17001KT 16/09 A3006 RMK A01 T01640090  RH  062%=      5-min Rain = 0
KMC4 121306Z 17001KT 16/09 A3006 RMK A01 T01630090  RH  062%=      5-min Rain = 0
KMC4 121307Z 17001KT 16/09 A3006 RMK A01 T01620089  RH  062%=      5-min Rain = 0
KMC4 121308Z 17001KT 16/09 A3006 RMK A01 T01630090  RH  062%=      5-min Rain = 0
KMC4 121309Z 17000KT 16/09 A3006 RMK A01 T01630091  RH  062%=      5-min Rain = 0
KMC4 121310Z 21001KT 16/09 A3007 RMK A01 T01640091  RH  062%=      5-min Rain = 0
KMC4 121311Z 22001KT 16/09 A3007 RMK A01 T01640091  RH  062%=      5-min Rain = 0
KMC4 121312Z 23001KT 17/09 A3007 RMK A01 T01650091  RH  062%=      5-min Rain = 0
KMC4 121313Z 24001KT 17/09 A3007 RMK A01 T01660091  RH  061%=      5-min Rain = 0
KMC4 121314Z 25002KT 17/09 A3007 RMK A01 T01670092  RH  061%=      5-min Rain = 0
KMC4 121315Z 26002KT 17/09 A3007 RMK A01 T01680092  RH  061%=      5-min Rain = 0
KMC4 121316Z 27001KT 17/09 A3007 RMK A01 T01680092  RH  061%=      5-min Rain = 0
KMC4 121317Z 27001KT 17/09 A3007 RMK A01 T01700093  RH  061%=      5-min Rain = 0
KMC4 121318Z 27001KT 17/09 A3007 RMK A01 T01710094  RH  060%=      5-min Rain = 0
KMC4 121319Z 26001KT 17/09 A3007 RMK A01 T01720094  RH  060%=      5-min Rain = 0
KMC4 121320Z 25001KT 17/09 A3007 RMK A01 T01730094  RH  059%=      5-min Rain = 0
KMC4 121321Z 25001KT 17/09 A3007 RMK A01 T01740094  RH  059%=      5-min Rain = 0
KMC4 121322Z 25001KT 18/09 A3007 RMK A01 T01750094  RH  059%=      5-min Rain = 0
KMC4 121323Z 25001KT 18/10 A3007 RMK A01 T01760095  RH  059%=      5-min Rain = 0
KMC4 121324Z 26001KT 18/10 A3007 RMK A01 T01770095  RH  058%=      5-min Rain = 0
KMC4 121325Z 27001KT 18/10 A3007 RMK A01 T01780096  RH  059%=      5-min Rain = 0
KMC4 121326Z 27001KT 18/10 A3007 RMK A01 T01790096  RH  058%=      5-min Rain = 0
KMC4 121327Z 27001KT 18/10 A3007 RMK A01 T01800097  RH  058%=      5-min Rain = 0
KMC4 121328Z 27001KT 18/10 A3007 RMK A01 T01800095  RH  058%=      5-min Rain = 0
KMC4 121329Z 27001KT 18/09 A3007 RMK A01 T01810094  RH  057%=      5-min Rain = 0
KMC4 121330Z 27001KT 18/10 A3007 RMK A01 T01810096  RH  057%=      5-min Rain = 0
KMC4 121331Z 27001KT 18/10 A3007 RMK A01 T01820097  RH  058%=      5-min Rain = 0
KMC4 121332Z 27001KT 18/10 A3007 RMK A01 T01820096  RH  057%=      5-min Rain = 0
KMC4 121333Z 26001KT 18/10 A3007 RMK A01 T01830096  RH  057%=      5-min Rain = 0
KMC4 121334Z 24001KT 18/10 A3007 RMK A01 T01840096  RH  056%=      5-min Rain = 0
KMC4 121335Z 23001KT 18/10 A3007 RMK A01 T01840097  RH  057%=      5-min Rain = 0
KMC4 121336Z 24001KT 19/10 A3007 RMK A01 T01850097  RH  057%=      5-min Rain = 0
KMC4 121337Z 25001KT 19/10 A3007 RMK A01 T01860097  RH  056%=      5-min Rain = 0
KMC4 121338Z 26001KT 19/10 A3007 RMK A01 T01870097  RH  056%=      5-min Rain = 0
KMC4 121339Z 27001KT 19/10 A3007 RMK A01 T01870098  RH  056%=      5-min Rain = 0
KMC4 121340Z 26001KT 19/10 A3007 RMK A01 T01870099  RH  056%=      5-min Rain = 0
KMC4 121341Z 27001KT 19/10 A3007 RMK A01 T01880099  RH  056%=      5-min Rain = 0
KMC4 121342Z 27001KT 19/10 A3007 RMK A01 T01890098  RH  055%=      5-min Rain = 0
KMC4 121343Z 27001KT 19/10 A3007 RMK A01 T01900099  RH  055%=      5-min Rain = 0
KMC4 121344Z 27002KT 19/10 A3007 RMK A01 T01910099  RH  055%=      5-min Rain = 0
KMC4 121345Z 27002KT 19/10 A3007 RMK A01 T01910099  RH  055%=      5-min Rain = 0
KMC4 121346Z 27002KT 19/10 A3007 RMK A01 T01920098  RH  054%=      5-min Rain = 0
KMC4 121347Z 28002KT 19/10 A3007 RMK A01 T01930098  RH  054%=      5-min Rain = 0
KMC4 121348Z 28002KT 19/10 A3007 RMK A01 T01940097  RH  054%=      5-min Rain = 0
KMC4 121349Z 28002KT 19/10 A3007 RMK A01 T01940098  RH  054%=      5-min Rain = 0
KMC4 121350Z 27002KT 20/10 A3007 RMK A01 T01950098  RH  054%=      5-min Rain = 0
KMC4 121351Z 28002KT 20/10 A3007 RMK A01 T01960099  RH  053%=      5-min Rain = 0
KMC4 121352Z 27002KT 20/10 A3007 RMK A01 T01960098  RH  053%=      5-min Rain = 0
KMC4 121353Z 27002KT 20/10 A3007 RMK A01 T01970098  RH  053%=      5-min Rain = 0
KMC4 121354Z 28002KT 20/10 A3007 RMK A01 T01970098  RH  053%=      5-min Rain = 0
KMC4 121355Z 27001KT 20/10 A3007 RMK A01 T01980099  RH  053%=      5-min Rain = 0
KMC4 121356Z 28001KT 20/10 A3007 RMK A01 T01990098  RH  052%=      5-min Rain = 0
KMC4 121357Z 29000KT 20/10 A3007 RMK A01 T01990099  RH  052%=      5-min Rain = 0
KMC4 121358Z 27001KT 20/10 A3007 RMK A01 T02010099  RH  052%=      5-min Rain = 0
KMC4 121359Z 28000KT 20/10 A3007 RMK A01 T02010099  RH  052%=      5-min Rain = 0
KMC4 121400Z 29000KT 20/10 A3007 RMK A01 T02020099  RH  052%=      5-min Rain = 0
KMC4 121401Z 29000KT 20/10 A3007 RMK A01 T02020098  RH  051%=      5-min Rain = 0
KMC4 121402Z 00000KT 20/10 A3007 RMK A01 T02030098  RH  051%=      5-min Rain = 0
KMC4 121403Z 00000KT 20/10 A3007 RMK A01 T02040098  RH  051%=      5-min Rain = 0
KMC4 121404Z 00000KT 21/10 A3007 RMK A01 T02050098  RH  050%=      5-min Rain = 0
KMC4 121405Z 00000KT 21/10 A3007 RMK A01 T02060098  RH  050%=      5-min Rain = 0
KMC4 121406Z 00000KT 21/10 A3007 RMK A01 T02070099  RH  050%=      5-min Rain = 0
KMC4 121407Z 00000KT 21/10 A3007 RMK A01 T02080099  RH  050%=      5-min Rain = 0
KMC4 121408Z 00000KT 21/10 A3007 RMK A01 T02100099  RH  049%=      5-min Rain = 0
KMC4 121409Z 00000KT 21/10 A3007 RMK A01 T02120100  RH  049%=      5-min Rain = 0
KMC4 121410Z 00000KT 21/10 A3007 RMK A01 T02130101  RH  048%=      5-min Rain = 0
KMC4 121411Z 00000KT 22/10 A3007 RMK A01 T02150101  RH  048%=      5-min Rain = 0
KMC4 121412Z 00000KT 22/10 A3007 RMK A01 T02160101  RH  048%=      5-min Rain = 0
KMC4 121413Z 00000KT 22/10 A3007 RMK A01 T02170100  RH  047%=      5-min Rain = 0
KMC4 121414Z 00000KT 22/10 A3007 RMK A01 T02170100  RH  047%=      5-min Rain = 0
KMC4 121415Z 00000KT 22/10 A3007 RMK A01 T02180100  RH  047%=      5-min Rain = 0
KMC4 121416Z 00000KT 22/10 A3007 RMK A01 T02190101  RH  047%=      5-min Rain = 0
KMC4 121417Z 00000KT 22/10 A3007 RMK A01 T02200101  RH  047%=      5-min Rain = 0
KMC4 121418Z 00000KT 22/10 A3007 RMK A01 T02220102  RH  047%=      5-min Rain = 0
KMC4 121419Z 00000KT 22/10 A3007 RMK A01 T02220101  RH  046%=      5-min Rain = 0
KMC4 121420Z 00000KT 22/10 A3007 RMK A01 T02230102  RH  046%=      5-min Rain = 0
KMC4 121421Z 00000KT 22/10 A3007 RMK A01 T02240103  RH  046%=      5-min Rain = 0
KMC4 121422Z 00000KT 23/10 A3007 RMK A01 T02250103  RH  046%=      5-min Rain = 0
KMC4 121423Z 00000KT 23/10 A3007 RMK A01 T02250102  RH  046%=      5-min Rain = 0
KMC4 121424Z 00000KT 23/10 A3007 RMK A01 T02260103  RH  046%=      5-min Rain = 0
KMC4 121425Z 01000KT 23/10 A3007 RMK A01 T02260103  RH  045%=      5-min Rain = 0
KMC4 121426Z 03000KT 23/10 A3007 RMK A01 T02270103  RH  045%=      5-min Rain = 0
KMC4 121427Z 05000KT 23/10 A3007 RMK A01 T02290104  RH  045%=      5-min Rain = 0
KMC4 121428Z 04000KT 23/11 A3007 RMK A01 T02310105  RH  045%=      5-min Rain = 0
KMC4 121429Z 07000KT 23/11 A3007 RMK A01 T02330105  RH  044%=      5-min Rain = 0
KMC4 121430Z 07000KT 24/11 A3007 RMK A01 T02360106  RH  044%=      5-min Rain = 0
KMC4 121431Z 09000KT 24/11 A3007 RMK A01 T02380105  RH  043%=      5-min Rain = 0
KMC4 121432Z 09001KT 24/11 A3007 RMK A01 T02390105  RH  043%=      5-min Rain = 0
KMC4 121433Z 09001KT 24/11 A3007 RMK A01 T02410105  RH  042%=      5-min Rain = 0
KMC4 121434Z 09001KT 24/11 A3007 RMK A01 T02430106  RH  042%=      5-min Rain = 0
KMC4 121435Z 11001KT 25/11 A3007 RMK A01 T02450107  RH  042%=      5-min Rain = 0
KMC4 121436Z 10002KT 25/11 A3007 RMK A01 T02470107  RH  041%=      5-min Rain = 0
KMC4 121437Z 11002KT 25/11 A3007 RMK A01 T02470106  RH  041%=      5-min Rain = 0
KMC4 121438Z 10002KT 25/11 A3007 RMK A01 T02460106  RH  041%=      5-min Rain = 0
KMC4 121439Z 10003KT 25/11 A3007 RMK A01 T02450106  RH  041%=      5-min Rain = 0
KMC4 121440Z 12003KT 24/11 A3007 RMK A01 T02440105  RH  041%=      5-min Rain = 0
KMC4 121441Z 12002KT 24/11 A3007 RMK A01 T02440105  RH  042%=      5-min Rain = 0
KMC4 121442Z 10003KT 24/11 A3007 RMK A01 T02440106  RH  042%=      5-min Rain = 0
KMC4 121443Z 09003KT 24/11 A3007 RMK A01 T02440105  RH  041%=      5-min Rain = 0
KMC4 121444Z 09003KT 24/10 A3007 RMK A01 T02440104  RH  041%=      5-min Rain = 0
KMC4 121445Z 12003KT 24/11 A3007 RMK A01 T02430107  RH  042%=      5-min Rain = 0
KMC4 121446Z 11003KT 24/11 A3007 RMK A01 T02440106  RH  042%=      5-min Rain = 0
KMC4 121447Z 10003KT 25/11 A3008 RMK A01 T02450105  RH  041%=      5-min Rain = 0
KMC4 121448Z 10002KT 25/10 A3008 RMK A01 T02450103  RH  041%=      5-min Rain = 0
KMC4 121449Z 13003KT 25/11 A3008 RMK A01 T02450105  RH  041%=      5-min Rain = 0
KMC4 121450Z 11003KT 25/10 A3008 RMK A01 T02460104  RH  041%=      5-min Rain = 0
KMC4 121451Z 11003KT 25/10 A3008 RMK A01 T02480100  RH  039%=      5-min Rain = 0
KMC4 121452Z 11003KT 25/10 A3008 RMK A01 T02480101  RH  039%=      5-min Rain = 0
KMC4 121453Z 11003KT 25/10 A3008 RMK A01 T02480103  RH  040%=      5-min Rain = 0
KMC4 121454Z 09003KT 25/10 A3008 RMK A01 T02480104  RH  040%=      5-min Rain = 0
KMC4 121455Z 10003KT 25/10 A3008 RMK A01 T02480104  RH  040%=      5-min Rain = 0
KMC4 121456Z 13003KT 25/11 A3008 RMK A01 T02480105  RH  041%=      5-min Rain = 0
KMC4 121457Z 15003KT 25/11 A3008 RMK A01 T02480105  RH  040%=      5-min Rain = 0
KMC4 121458Z 14003KT 25/11 A3008 RMK A01 T02500106  RH  040%=      5-min Rain = 0
KMC4 121459Z 14003KT 25/11 A3008 RMK A01 T02510105  RH  040%=      5-min Rain = 0
KMC4 121500Z 14003KT 25/10 A3008 RMK A01 T02510104  RH  040%=      5-min Rain = 0
KMC4 121501Z 14002KT 25/10 A3008 RMK A01 T02520104  RH  039%=      5-min Rain = 0
KMC4 121502Z 14002KT 25/10 A3008 RMK A01 T02510104  RH  039%=      5-min Rain = 0
KMC4 121503Z 13003KT 25/10 A3008 RMK A01 T02520104  RH  039%=      5-min Rain = 0
KMC4 121504Z 12003KT 25/10 A3008 RMK A01 T02520104  RH  039%=      5-min Rain = 0
KMC4 121505Z 11002KT 25/10 A3008 RMK A01 T02530104  RH  039%=      5-min Rain = 0
KMC4 121506Z 13003KT 25/10 A3008 RMK A01 T02530103  RH  039%=      5-min Rain = 0
KMC4 121507Z 11003KT 25/10 A3008 RMK A01 T02540102  RH  038%=      5-min Rain = 0
KMC4 121508Z 12003KT 25/10 A3008 RMK A01 T02540104  RH  039%=      5-min Rain = 0
KMC4 121509Z 12003KT 26/10 A3008 RMK A01 T02550103  RH  038%=      5-min Rain = 0
KMC4 121510Z 11003KT 26/10 A3008 RMK A01 T02560102  RH  038%=      5-min Rain = 0
KMC4 121511Z 11002KT 26/10 A3008 RMK A01 T02550101  RH  038%=      5-min Rain = 0
KMC4 121512Z 09002KT 25/10 A3008 RMK A01 T02540101  RH  038%=      5-min Rain = 0
KMC4 121513Z 11002KT 26/10 A3008 RMK A01 T02550102  RH  038%=      5-min Rain = 0
KMC4 121514Z 15002KT 26/10 A3008 RMK A01 T02560102  RH  038%=      5-min Rain = 0
KMC4 121515Z 14001KT 26/10 A3008 RMK A01 T02580102  RH  037%=      5-min Rain = 0
KMC4 121516Z 13002KT 26/10 A3008 RMK A01 T02590103  RH  037%=      5-min Rain = 0
KMC4 121517Z 12002KT 26/10 A3008 RMK A01 T02610101  RH  037%=      5-min Rain = 0
KMC4 121518Z 13001KT 26/10 A3008 RMK A01 T02620103  RH  037%=      5-min Rain = 0
KMC4 121519Z 12001KT 26/11 A3008 RMK A01 T02640105  RH  037%=      5-min Rain = 0
KMC4 121520Z 13002KT 27/10 A3008 RMK A01 T02660104  RH  036%=      5-min Rain = 0
KMC4 121521Z 13001KT 27/10 A3008 RMK A01 T02670103  RH  036%=      5-min Rain = 0
KMC4 121522Z 13001KT 27/10 A3008 RMK A01 T02670102  RH  036%=      5-min Rain = 0
KMC4 121523Z 11000KT 27/10 A3008 RMK A01 T02660103  RH  036%=      5-min Rain = 0
KMC4 121524Z 11002KT 27/10 A3008 RMK A01 T02660103  RH  036%=      5-min Rain = 0
KMC4 121525Z 11002KT 27/10 A3008 RMK A01 T02670102  RH  035%=      5-min Rain = 0
KMC4 121526Z 10002KT 27/10 A3008 RMK A01 T02660101  RH  035%=      5-min Rain = 0
KMC4 121527Z 12002KT 27/10 A3008 RMK A01 T02650102  RH  036%=      5-min Rain = 0
KMC4 121528Z 09001KT 27/10 A3008 RMK A01 T02650101  RH  036%=      5-min Rain = 0
KMC4 121529Z 07001KT 26/10 A3008 RMK A01 T02640101  RH  036%=      5-min Rain = 0
KMC4 121530Z 10002KT 26/10 A3008 RMK A01 T02630101  RH  036%=      5-min Rain = 0
KMC4 121531Z 08001KT 26/10 A3008 RMK A01 T02610102  RH  037%=      5-min Rain = 0
KMC4 121532Z 07001KT 26/10 A3008 RMK A01 T02620103  RH  037%=      5-min Rain = 0
KMC4 121533Z 05003KT 26/10 A3008 RMK A01 T02630103  RH  037%=      5-min Rain = 0
KMC4 121534Z 08003KT 26/10 A3008 RMK A01 T02630104  RH  037%=      5-min Rain = 0
KMC4 121535Z 11003KT 26/11 A3008 RMK A01 T02620105  RH  037%=      5-min Rain = 0
KMC4 121536Z 13004KT 26/11 A3008 RMK A01 T02620106  RH  038%=      5-min Rain = 0
KMC4 121537Z 13004KT 26/11 A3008 RMK A01 T02630105  RH  037%=      5-min Rain = 0
KMC4 121538Z 12004KT 26/10 A3008 RMK A01 T02640104  RH  037%=      5-min Rain = 0
KMC4 121539Z 13003KT 26/10 A3008 RMK A01 T02630103  RH  037%=      5-min Rain = 0
KMC4 121540Z 14002KT 26/10 A3008 RMK A01 T02630103  RH  037%=      5-min Rain = 0
KMC4 121541Z 18001KT 26/10 A3008 RMK A01 T02630103  RH  037%=      5-min Rain = 0
KMC4 121542Z 24000KT 26/10 A3008 RMK A01 T02630103  RH  037%=      5-min Rain = 0
KMC4 121543Z 32000KT 26/10 A3008 RMK A01 T02630104  RH  037%=      5-min Rain = 0
KMC4 121544Z 04002KT 26/11 A3008 RMK A01 T02630105  RH  037%=      5-min Rain = 0
KMC4 121545Z 05002KT 26/11 A3008 RMK A01 T02640105  RH  037%=      5-min Rain = 0
KMC4 121546Z 05001KT 26/10 A3008 RMK A01 T02630104  RH  037%=      5-min Rain = 0
KMC4 121547Z 07001KT 26/10 A3008 RMK A01 T02630104  RH  037%=      5-min Rain = 0
KMC4 121548Z 07001KT 26/11 A3008 RMK A01 T02640105  RH  037%=      5-min Rain = 0
KMC4 121549Z 12002KT 27/11 A3008 RMK A01 T02660105  RH  037%=      5-min Rain = 0
KMC4 121550Z 11003KT 27/10 A3008 RMK A01 T02670104  RH  036%=      5-min Rain = 0
KMC4 121551Z 14002KT 27/10 A3008 RMK A01 T02680103  RH  036%=      5-min Rain = 0
KMC4 121552Z 16002KT 27/11 A3008 RMK A01 T02700105  RH  036%=      5-min Rain = 0
KMC4 121553Z 19002KT 27/10 A3008 RMK A01 T02700104  RH  035%=      5-min Rain = 0
KMC4 121554Z 21001KT 27/11 A3008 RMK A01 T02690105  RH  036%=      5-min Rain = 0
KMC4 121555Z 13002KT 27/11 A3008 RMK A01 T02690105  RH  036%=      5-min Rain = 0
KMC4 121556Z 11003KT 27/10 A3008 RMK A01 T02710103  RH  035%=      5-min Rain = 0
KMC4 121557Z 12003KT 27/10 A3008 RMK A01 T02710103  RH  035%=      5-min Rain = 0
KMC4 121558Z 12001KT 27/10 A3008 RMK A01 T02710103  RH  035%=      5-min Rain = 0
KMC4 121559Z 10000KT 27/10 A3007 RMK A01 T02720102  RH  035%=      5-min Rain = 0
KMC4 121600Z 03001KT 28/10 A3007 RMK A01 T02750104  RH  034%=      5-min Rain = 0
KMC4 121601Z 03001KT 28/10 A3007 RMK A01 T02750103  RH  034%=      5-min Rain = 0
KMC4 121602Z 03002KT 27/10 A3007 RMK A01 T02710102  RH  035%=      5-min Rain = 0
KMC4 121603Z 05001KT 27/10 A3007 RMK A01 T02690103  RH  035%=      5-min Rain = 0
KMC4 121604Z 04001KT 27/10 A3007 RMK A01 T02690104  RH  036%=      5-min Rain = 0
KMC4 121605Z 06002KT 27/10 A3007 RMK A01 T02700104  RH  035%=      5-min Rain = 0
KMC4 121606Z 08002KT 27/10 A3007 RMK A01 T02710103  RH  035%=      5-min Rain = 0
KMC4 121607Z 08002KT 27/10 A3007 RMK A01 T02700104  RH  035%=      5-min Rain = 0
KMC4 121608Z 06000KT 27/11 A3007 RMK A01 T02720105  RH  035%=      5-min Rain = 0
KMC4 121609Z 09001KT 27/11 A3007 RMK A01 T02740106  RH  035%=      5-min Rain = 0
KMC4 121610Z 06001KT 28/11 A3007 RMK A01 T02770106  RH  034%=      5-min Rain = 0
KMC4 121611Z 07002KT 28/11 A3007 RMK A01 T02790105  RH  034%=      5-min Rain = 0
KMC4 121612Z 08003KT 28/11 A3007 RMK A01 T02790106  RH  034%=      5-min Rain = 0
KMC4 121613Z 08002KT 28/10 A3007 RMK A01 T02800104  RH  033%=      5-min Rain = 0
KMC4 121614Z 08001KT 28/10 A3007 RMK A01 T02780104  RH  034%=      5-min Rain = 0
KMC4 121615Z 21000KT 28/10 A3007 RMK A01 T02770104  RH  034%=      5-min Rain = 0
KMC4 121616Z 21001KT 28/10 A3007 RMK A01 T02780104  RH  034%=      5-min Rain = 0
KMC4 121617Z 13003KT 28/10 A3007 RMK A01 T02790104  RH  034%=      5-min Rain = 0
KMC4 121618Z 12002KT 28/11 A3007 RMK A01 T02810105  RH  033%=      5-min Rain = 0
KMC4 121619Z 14001KT 28/10 A3007 RMK A01 T02820104  RH  033%=      5-min Rain = 0
KMC4 121620Z 21001KT 28/11 A3007 RMK A01 T02840106  RH  033%=      5-min Rain = 0
KMC4 121621Z 23002KT 29/10 A3007 RMK A01 T02850104  RH  033%=      5-min Rain = 0
KMC4 121622Z 29001KT 28/11 A3007 RMK A01 T02830105  RH  033%=      5-min Rain = 0
KMC4 121623Z 30002KT 28/11 A3007 RMK A01 T02820106  RH  033%=      5-min Rain = 0
KMC4 121624Z 30005KT 28/11 A3007 RMK A01 T02830106  RH  033%=      5-min Rain = 0
KMC4 121625Z 31003KT 28/10 A3007 RMK A01 T02830104  RH  033%=      5-min Rain = 0
KMC4 121626Z 29003KT 28/11 A3007 RMK A01 T02820105  RH  033%=      5-min Rain = 0
KMC4 121627Z 27003KT 28/11 A3007 RMK A01 T02820106  RH  033%=      5-min Rain = 0
KMC4 121628Z 27003KT 28/11 A3007 RMK A01 T02810105  RH  033%=      5-min Rain = 0
KMC4 121629Z 29001KT 28/11 A3007 RMK A01 T02810105  RH  033%=      5-min Rain = 0
KMC4 121630Z 35001KT 28/10 A3007 RMK A01 T02810104  RH  033%=      5-min Rain = 0
KMC4 121631Z 08000KT 28/10 A3007 RMK A01 T02810103  RH  033%=      5-min Rain = 0
KMC4 121632Z 32000KT 28/10 A3007 RMK A01 T02830103  RH  033%=      5-min Rain = 0
KMC4 121633Z 33001KT 29/10 A3007 RMK A01 T02850104  RH  032%=      5-min Rain = 0
KMC4 121634Z 27004KT 29/11 A3007 RMK A01 T02870106  RH  032%=      5-min Rain = 0
KMC4 121635Z 30002KT 29/11 A3007 RMK A01 T02870105  RH  032%=      5-min Rain = 0
KMC4 121636Z 28003KT 29/11 A3007 RMK A01 T02880106  RH  032%=      5-min Rain = 0
KMC4 121637Z 26004KT 29/11 A3006 RMK A01 T02900107  RH  032%=      5-min Rain = 0
KMC4 121638Z 28004KT 29/11 A3006 RMK A01 T02890106  RH  032%=      5-min Rain = 0
KMC4 121639Z 30002KT 29/11 A3006 RMK A01 T02880106  RH  032%=      5-min Rain = 0
KMC4 121640Z 30004KT 29/11 A3006 RMK A01 T02890107  RH  032%=      5-min Rain = 0
KMC4 121641Z 29003KT 29/11 A3006 RMK A01 T02900106  RH  032%=      5-min Rain = 0
KMC4 121642Z 29005KT 29/11 A3006 RMK A01 T02900106  RH  032%=      5-min Rain = 0
KMC4 121643Z 31005KT 29/11 A3006 RMK A01 T02900108  RH  032%=      5-min Rain = 0
KMC4 121644Z 31003KT 29/11 A3006 RMK A01 T02910106  RH  032%=      5-min Rain = 0
KMC4 121645Z 29002KT 29/10 A3006 RMK A01 T02920104  RH  031%=      5-min Rain = 0
KMC4 121646Z 29003KT 29/10 A3006 RMK A01 T02910104  RH  031%=      5-min Rain = 0
KMC4 121647Z 28003KT 29/11 A3006 RMK A01 T02910105  RH  031%=      5-min Rain = 0
KMC4 121648Z 29005KT 29/10 A3006 RMK A01 T02910104  RH  031%=      5-min Rain = 0
KMC4 121649Z 31003KT 29/10 A3006 RMK A01 T02910103  RH  031%=      5-min Rain = 0
KMC4 121650Z 33004KT 29/10 A3006 RMK A01 T02910103  RH  031%=      5-min Rain = 0
KMC4 121651Z 30003KT 29/10 A3006 RMK A01 T02910103  RH  031%=      5-min Rain = 0
KMC4 121652Z 26004KT 29/10 A3006 RMK A01 T02920104  RH  031%=      5-min Rain = 0
KMC4 121653Z 29006KT 29/10 A3006 RMK A01 T02930103  RH  031%=      5-min Rain = 0
KMC4 121654Z 27006KT 29/10 A3006 RMK A01 T02920101  RH  031%=      5-min Rain = 0
KMC4 121655Z 27006KT 29/10 A3006 RMK A01 T02910103  RH  031%=      5-min Rain = 0
KMC4 121656Z 27004KT 29/10 A3006 RMK A01 T02910102  RH  031%=      5-min Rain = 0
KMC4 121657Z 26004KT 29/10 A3006 RMK A01 T02900101  RH  031%=      5-min Rain = 0
KMC4 121658Z 28004KT 29/10 A3006 RMK A01 T02900101  RH  031%=      5-min Rain = 0
KMC4 121659Z 30003KT 29/10 A3006 RMK A01 T02900100  RH  031%=      5-min Rain = 0
KMC4 121700Z 31002KT 29/10 A3006 RMK A01 T02910102  RH  031%=      5-min Rain = 0
KMC4 121701Z 29001KT 29/10 A3006 RMK A01 T02920102  RH  031%=      5-min Rain = 0
KMC4 121702Z 28003KT 29/10 A3006 RMK A01 T02940102  RH  030%=      5-min Rain = 0
KMC4 121703Z 25005KT 30/11 A3006 RMK A01 T02950105  RH  031%=      5-min Rain = 0
KMC4 121704Z 26005KT 30/11 A3006 RMK A01 T02970105  RH  030%=      5-min Rain = 0
KMC4 121705Z 27006KT 30/11 A3005 RMK A01 T02990105  RH  030%=      5-min Rain = 0
KMC4 121706Z 30005KT 30/11 A3005 RMK A01 T02990105  RH  030%=      5-min Rain = 0
KMC4 121707Z 26006KT 30/11 A3005 RMK A01 T02990106  RH  030%=      5-min Rain = 0
KMC4 121708Z 25004KT 30/10 A3005 RMK A01 T02980104  RH  030%=      5-min Rain = 0
KMC4 121709Z 27003KT 30/10 A3005 RMK A01 T02970102  RH  030%=      5-min Rain = 0
KMC4 121710Z 27005KT 30/10 A3005 RMK A01 T02970104  RH  030%=      5-min Rain = 0
KMC4 121711Z 28007KT 30/10 A3005 RMK A01 T02970104  RH  030%=      5-min Rain = 0
KMC4 121712Z 30007KT 30/10 A3005 RMK A01 T02980103  RH  030%=      5-min Rain = 0
KMC4 121713Z 31006KT 30/10 A3005 RMK A01 T02990104  RH  030%=      5-min Rain = 0
KMC4 121714Z 30005KT 30/11 A3005 RMK A01 T02990105  RH  030%=      5-min Rain = 0
KMC4 121715Z 29003KT 30/10 A3005 RMK A01 T02990101  RH  029%=      5-min Rain = 0
KMC4 121716Z 26003KT 30/11 A3005 RMK A01 T02990105  RH  030%=      5-min Rain = 0
KMC4 121717Z 27003KT 30/11 A3005 RMK A01 T02990106  RH  030%=      5-min Rain = 0
KMC4 121718Z 25003KT 30/10 A3005 RMK A01 T03000103  RH  030%=      5-min Rain = 0
KMC4 121719Z 28003KT 30/11 A3005 RMK A01 T02990105  RH  030%=      5-min Rain = 0
KMC4 121720Z 30003KT 30/11 A3005 RMK A01 T03000106  RH  030%=      5-min Rain = 0
KMC4 121721Z 28002KT 30/11 A3005 RMK A01 T03020107  RH  030%=      5-min Rain = 0
KMC4 121722Z 23004KT 31/11 A3005 RMK A01 T03050107  RH  030%=      5-min Rain = 0
KMC4 121723Z 23003KT 31/10 A3005 RMK A01 T03050104  RH  029%=      5-min Rain = 0
KMC4 121724Z 27004KT 30/10 A3005 RMK A01 T03030103  RH  029%=      5-min Rain = 0
KMC4 121725Z 28007KT 30/10 A3005 RMK A01 T03020103  RH  029%=      5-min Rain = 0
KMC4 121726Z 28006KT 30/10 A3005 RMK A01 T03020102  RH  029%=      5-min Rain = 0
KMC4 121727Z 28005KT 30/10 A3005 RMK A01 T03020100  RH  029%=      5-min Rain = 0
KMC4 121728Z 29004KT 30/10 A3005 RMK A01 T03010103  RH  029%=      5-min Rain = 0
KMC4 121729Z 30008KT 30/11 A3005 RMK A01 T03030106  RH  029%=      5-min Rain = 0
KMC4 121730Z 30009KT 31/10 A3005 RMK A01 T03060102  RH  028%=      5-min Rain = 0
KMC4 121731Z 31005KT 30/10 A3005 RMK A01 T03040103  RH  029%=      5-min Rain = 0
KMC4 121732Z 31003KT 30/10 A3005 RMK A01 T03030103  RH  029%=      5-min Rain = 0
KMC4 121733Z 33003KT 30/10 A3004 RMK A01 T03030100  RH  028%=      5-min Rain = 0
KMC4 121734Z 33002KT 30/10 A3004 RMK A01 T03030101  RH  029%=      5-min Rain = 0
KMC4 121735Z 31005KT 30/10 A3004 RMK A01 T03040102  RH  029%=      5-min Rain = 0
KMC4 121736Z 31005KT 31/11 A3004 RMK A01 T03060107  RH  029%=      5-min Rain = 0
KMC4 121737Z 32007KT 31/11 A3004 RMK A01 T03100105  RH  028%=      5-min Rain = 0
KMC4 121738Z 31008KT 31/11 A3004 RMK A01 T03110105  RH  028%=      5-min Rain = 0
KMC4 121739Z 31005KT 31/10 A3004 RMK A01 T03100104  RH  028%=      5-min Rain = 0
KMC4 121740Z 31003KT 31/10 A3004 RMK A01 T03080104  RH  028%=      5-min Rain = 0
KMC4 121741Z 31002KT 31/11 A3004 RMK A01 T03080106  RH  029%=      5-min Rain = 0
KMC4 121742Z 31002KT 31/10 A3004 RMK A01 T03080101  RH  028%=      5-min Rain = 0
KMC4 121743Z 31004KT 31/10 A3004 RMK A01 T03080103  RH  028%=      5-min Rain = 0
KMC4 121744Z 29006KT 31/10 A3004 RMK A01 T03090104  RH  028%=      5-min Rain = 0
KMC4 121745Z 26003KT 31/10 A3004 RMK A01 T03090100  RH  028%=      5-min Rain = 0
KMC4 121746Z 27007KT 31/11 A3004 RMK A01 T03070105  RH  029%=      5-min Rain = 0
KMC4 121747Z 28005KT 31/10 A3004 RMK A01 T03080104  RH  028%=      5-min Rain = 0
KMC4 121748Z 26003KT 31/10 A3004 RMK A01 T03080103  RH  028%=      5-min Rain = 0
KMC4 121749Z 27004KT 31/10 A3004 RMK A01 T03080103  RH  028%=      5-min Rain = 0
KMC4 121750Z 26003KT 31/10 A3004 RMK A01 T03080103  RH  028%=      5-min Rain = 0
KMC4 121751Z 24002KT 31/10 A3003 RMK A01 T03090103  RH  028%=      5-min Rain = 0
KMC4 121752Z 30007KT 31/11 A3003 RMK A01 T03100107  RH  029%=      5-min Rain = 0
KMC4 121753Z 30007KT 32/11 A3003 RMK A01 T03150109  RH  028%=      5-min Rain = 0
KMC4 121754Z 27004KT 32/11 A3003 RMK A01 T03180107  RH  027%=      5-min Rain = 0
KMC4 121755Z 27005KT 32/11 A3003 RMK A01 T03180106  RH  027%=      5-min Rain = 0
KMC4 121756Z 29007KT 32/11 A3003 RMK A01 T03170107  RH  028%=      5-min Rain = 0
KMC4 121757Z 29004KT 32/11 A3003 RMK A01 T03160105  RH  027%=      5-min Rain = 0
KMC4 121758Z 32003KT 31/10 A3003 RMK A01 T03140104  RH  027%=      5-min Rain = 0
KMC4 121759Z 26002KT 31/10 A3003 RMK A01 T03140104  RH  027%=      5-min Rain = 0
KMC4 121800Z 25004KT 31/11 A3003 RMK A01 T03140105  RH  028%=      5-min Rain = 0
KMC4 121801Z 25003KT 31/10 A3003 RMK A01 T03140103  RH  027%=      5-min Rain = 0
KMC4 121802Z 28008KT 31/10 A3003 RMK A01 T03130104  RH  028%=      5-min Rain = 0
KMC4 121803Z 28008KT 31/11 A3003 RMK A01 T03130105  RH  028%=      5-min Rain = 0
KMC4 121804Z 28009KT 31/11 A3003 RMK A01 T03140106  RH  028%=      5-min Rain = 0
KMC4 121805Z 26003G8KT 32/10 A3003 RMK A01 T03160104  RH  027%=      5-min Rain = 0
KMC4 121806Z 23001KT 31/10 A3003 RMK A01 T03140102  RH  027%=      5-min Rain = 0
KMC4 121807Z 29001KT 31/10 A3003 RMK A01 T03120102  RH  027%=      5-min Rain = 0
KMC4 121808Z 16000KT 31/10 A3003 RMK A01 T03130102  RH  027%=      5-min Rain = 0
KMC4 121809Z 22001KT 32/10 A3003 RMK A01 T03150102  RH  027%=      5-min Rain = 0
KMC4 121810Z 32002KT 32/10 A3003 RMK A01 T03160103  RH  027%=      5-min Rain = 0
KMC4 121811Z 31004KT 32/10 A3003 RMK A01 T03180104  RH  027%=      5-min Rain = 0
KMC4 121812Z 26004KT 32/11 A3003 RMK A01 T03180106  RH  027%=      5-min Rain = 0
KMC4 121813Z 25005KT 32/10 A3002 RMK A01 T03190104  RH  027%=      5-min Rain = 0
KMC4 121814Z 29007KT 32/10 A3002 RMK A01 T03190104  RH  027%=      5-min Rain = 0
KMC4 121815Z 31009KT 32/11 A3002 RMK A01 T03180107  RH  027%=      5-min Rain = 0
KMC4 121816Z 31008KT 32/11 A3002 RMK A01 T03200105  RH  027%=      5-min Rain = 0
KMC4 121817Z 31007KT 32/10 A3002 RMK A01 T03190104  RH  027%=      5-min Rain = 0
KMC4 121818Z 30006KT 32/10 A3002 RMK A01 T03180104  RH  027%=      5-min Rain = 0
KMC4 121819Z 26005KT 32/10 A3002 RMK A01 T03170104  RH  027%=      5-min Rain = 0
KMC4 121820Z 31003KT 32/10 A3002 RMK A01 T03160104  RH  027%=      5-min Rain = 0
KMC4 121821Z 30003KT 32/10 A3002 RMK A01 T03160103  RH  027%=      5-min Rain = 0
KMC4 121822Z 30004KT 32/11 A3002 RMK A01 T03170105  RH  027%=      5-min Rain = 0
KMC4 121823Z 28006KT 32/11 A3002 RMK A01 T03200106  RH  027%=      5-min Rain = 0
KMC4 121824Z 28007KT 32/11 A3002 RMK A01 T03220106  RH  027%=      5-min Rain = 0
KMC4 121825Z 28007KT 32/10 A3002 RMK A01 T03220104  RH  026%=      5-min Rain = 0
KMC4 121826Z 25004KT 32/10 A3002 RMK A01 T03190104  RH  027%=      5-min Rain = 0
KMC4 121827Z 28005KT 32/11 A3002 RMK A01 T03170105  RH  027%=      5-min Rain = 0
KMC4 121828Z 29003KT 32/10 A3002 RMK A01 T03180104  RH  027%=      5-min Rain = 0
KMC4 121829Z 31003KT 32/11 A3002 RMK A01 T03190105  RH  027%=      5-min Rain = 0
KMC4 121830Z 26003KT 32/10 A3002 RMK A01 T03200102  RH  026%=      5-min Rain = 0
KMC4 121831Z 26007KT 32/11 A3001 RMK A01 T03200105  RH  027%=      5-min Rain = 0
KMC4 121832Z 25005KT 32/11 A3001 RMK A01 T03190105  RH  027%=      5-min Rain = 0
KMC4 121833Z 26006KT 32/10 A3001 RMK A01 T03190103  RH  026%=      5-min Rain = 0
KMC4 121834Z 26006KT 32/10 A3001 RMK A01 T03170104  RH  027%=      5-min Rain = 0
KMC4 121835Z 26008KT 32/10 A3001 RMK A01 T03170104  RH  027%=      5-min Rain = 0
KMC4 121836Z 24005KT 32/10 A3001 RMK A01 T03180103  RH  027%=      5-min Rain = 0
KMC4 121837Z 24007KT 32/10 A3001 RMK A01 T03190103  RH  027%=      5-min Rain = 0
KMC4 121838Z 28005KT 32/11 A3001 RMK A01 T03200105  RH  027%=      5-min Rain = 0
KMC4 121839Z 31007KT 32/11 A3001 RMK A01 T03220105  RH  026%=      5-min Rain = 0
KMC4 121840Z 32006KT 32/10 A3001 RMK A01 T03220104  RH  026%=      5-min Rain = 0
KMC4 121841Z 27010KT 32/11 A3001 RMK A01 T03230107  RH  027%=      5-min Rain = 0
KMC4 121842Z 25009KT 33/11 A3001 RMK A01 T03270108  RH  026%=      5-min Rain = 0
KMC4 121843Z 24009KT 33/10 A30 RMK A01 T03270104  RH  025%=      5-min Rain = 0
KMC4 121844Z 24009KT 32/10 A30 RMK A01 T03240104  RH  026%=      5-min Rain = 0
KMC4 121845Z 24009KT 32/10 A30 RMK A01 T03220103  RH  026%=      5-min Rain = 0
KMC4 121846Z 27009KT 32/11 A30 RMK A01 T03230105  RH  026%=      5-min Rain = 0
KMC4 121847Z 27008KT 33/11 A30 RMK A01 T03280108  RH  026%=      5-min Rain = 0
KMC4 121848Z 31006G11KT 33/11 A30 RMK A01 T03310107  RH  025%=      5-min Rain = 0
KMC4 121849Z 32007KT 33/11 A30 RMK A01 T03320107  RH  025%=      5-min Rain = 0
KMC4 121850Z 32003KT 33/11 A30 RMK A01 T03300106  RH  025%=      5-min Rain = 0
KMC4 121851Z 34002KT 33/11 A30 RMK A01 T03290106  RH  026%=      5-min Rain = 0
KMC4 121852Z 34004KT 33/11 A30 RMK A01 T03290107  RH  026%=      5-min Rain = 0
KMC4 121853Z 01007KT 33/11 A30 RMK A01 T03310106  RH  025%=      5-min Rain = 0
KMC4 121854Z 36006KT 33/11 A30 RMK A01 T03300105  RH  025%=      5-min Rain = 0
KMC4 121855Z 00006KT 33/11 A30 RMK A01 T03280105  RH  026%=      5-min Rain = 0
KMC4 121856Z 00005KT 33/11 A30 RMK A01 T03270105  RH  026%=      5-min Rain = 0
KMC4 121857Z 33002KT 33/10 A30 RMK A01 T03260103  RH  025%=      5-min Rain = 0
KMC4 121858Z 34001KT 33/11 A30 RMK A01 T03260105  RH  026%=      5-min Rain = 0
KMC4 121859Z 00002KT 33/11 A30 RMK A01 T03280105  RH  025%=      5-min Rain = 0
KMC4 121900Z 35001KT 33/10 A30 RMK A01 T03290104  RH  025%=      5-min Rain = 0
KMC4 121901Z 34003KT 33/11 A30 RMK A01 T03290105  RH  025%=      5-min Rain = 0
KMC4 121902Z 01004KT 33/11 A30 RMK A01 T03290107  RH  026%=      5-min Rain = 0
KMC4 121903Z 03002KT 33/11 A30 RMK A01 T03290105  RH  025%=      5-min Rain = 0
KMC4 121904Z 01004G9KT 33/11 A30 RMK A01 T03300106  RH  025%=      5-min Rain = 0
KMC4 121905Z 35005KT 33/11 A30 RMK A01 T03320105  RH  025%=      5-min Rain = 0
KMC4 121906Z 35008KT 33/11 A30 RMK A01 T03310105  RH  025%=      5-min Rain = 0
KMC4 121907Z 34010KT 33/11 A2999 RMK A01 T03300105  RH  025%=      5-min Rain = 0
KMC4 121908Z 32006KT 33/11 A30 RMK A01 T03290107  RH  026%=      5-min Rain = 0
KMC4 121909Z 31003KT 33/11 A30 RMK A01 T03290106  RH  026%=      5-min Rain = 0
KMC4 121910Z 29003KT 33/11 A30 RMK A01 T03310105  RH  025%=      5-min Rain = 0
KMC4 121911Z 28004KT 33/11 A30 RMK A01 T03300105  RH  025%=      5-min Rain = 0
KMC4 121912Z 29008KT 33/11 A2999 RMK A01 T03290106  RH  025%=      5-min Rain = 0
KMC4 121913Z 28005KT 33/11 A2999 RMK A01 T03280107  RH  026%=      5-min Rain = 0
KMC4 121914Z 26004KT 33/11 A2999 RMK A01 T03300107  RH  026%=      5-min Rain = 0
KMC4 121915Z 26004KT 33/11 A2999 RMK A01 T03310106  RH  025%=      5-min Rain = 0
KMC4 121916Z 25003KT 33/11 A2999 RMK A01 T03310106  RH  025%=      5-min Rain = 0
KMC4 121917Z 28002KT 33/11 A2999 RMK A01 T03310105  RH  025%=      5-min Rain = 0
KMC4 121918Z 25003KT 33/11 A2999 RMK A01 T03310105  RH  025%=      5-min Rain = 0
KMC4 121919Z 27002KT 33/11 A2999 RMK A01 T03320105  RH  025%=      5-min Rain = 0
KMC4 121920Z 30005KT 33/11 A2999 RMK A01 T03330106  RH  025%=      5-min Rain = 0
KMC4 121921Z 29006KT 33/11 A2999 RMK A01 T03340106  RH  025%=      5-min Rain = 0
KMC4 121922Z 30003KT 33/11 A2999 RMK A01 T03340105  RH  025%=      5-min Rain = 0
KMC4 121923Z 32005KT 33/11 A2999 RMK A01 T03340106  RH  025%=      5-min Rain = 0
KMC4 121924Z 28004KT 34/11 A2998 RMK A01 T03350105  RH  025%=      5-min Rain = 0
KMC4 121925Z 28003KT 33/11 A2998 RMK A01 T03340106  RH  025%=      5-min Rain = 0
KMC4 121926Z 26002KT 33/11 A2998 RMK A01 T03340106  RH  025%=      5-min Rain = 0
KMC4 121927Z 32005KT 34/11 A2998 RMK A01 T03350106  RH  025%=      5-min Rain = 0
KMC4 121928Z 31006KT 34/11 A2998 RMK A01 T03350106  RH  025%=      5-min Rain = 0
KMC4 121929Z 31008KT 34/11 A2998 RMK A01 T03350107  RH  025%=      5-min Rain = 0
KMC4 121930Z 33004KT 34/11 A2998 RMK A01 T03350106  RH  025%=      5-min Rain = 0
KMC4 121931Z 01006KT 33/11 A2998 RMK A01 T03340105  RH  025%=      5-min Rain = 0
KMC4 121932Z 02009KT 33/11 A2998 RMK A01 T03340105  RH  025%=      5-min Rain = 0
KMC4 121933Z 05007KT 33/10 A2998 RMK A01 T03320103  RH  025%=      5-min Rain = 0
KMC4 121934Z 34002KT 33/10 A2998 RMK A01 T03310104  RH  025%=      5-min Rain = 0
KMC4 121935Z 30006KT 33/11 A2998 RMK A01 T03330106  RH  025%=      5-min Rain = 0
KMC4 121936Z 29007KT 34/11 A2998 RMK A01 T03350106  RH  025%=      5-min Rain = 0
KMC4 121937Z 28004KT 34/11 A2998 RMK A01 T03350105  RH  024%=      5-min Rain = 0
KMC4 121938Z 29002KT 33/10 A2998 RMK A01 T03340103  RH  024%=      5-min Rain = 0
KMC4 121939Z 31004KT 33/11 A2997 RMK A01 T03340106  RH  025%=      5-min Rain = 0
KMC4 121940Z 26003KT 34/11 A2997 RMK A01 T03350105  RH  025%=      5-min Rain = 0
KMC4 121941Z 24004KT 34/11 A2997 RMK A01 T03350105  RH  025%=      5-min Rain = 0
KMC4 121942Z 21002KT 33/10 A2997 RMK A01 T03330102  RH  024%=      5-min Rain = 0
KMC4 121943Z 21003KT 33/10 A2997 RMK A01 T03320103  RH  025%=      5-min Rain = 0
KMC4 121944Z 24003KT 33/10 A2997 RMK A01 T03330103  RH  025%=      5-min Rain = 0
KMC4 121945Z 06004KT 33/10 A2997 RMK A01 T03340104  RH  025%=      5-min Rain = 0
KMC4 121946Z 23003KT 33/10 A2997 RMK A01 T03330103  RH  024%=      5-min Rain = 0
KMC4 121947Z 25008KT 34/11 A2997 RMK A01 T03350107  RH  025%=      5-min Rain = 0
KMC4 121948Z 27006KT 34/11 A2997 RMK A01 T03400106  RH  024%=      5-min Rain = 0
KMC4 121949Z 32005G11KT 34/11 A2997 RMK A01 T03410108  RH  024%=      5-min Rain = 0
KMC4 121950Z 31010KT 34/11 A2997 RMK A01 T03440108  RH  024%=      5-min Rain = 0
KMC4 121951Z 31011KT 34/11 A2997 RMK A01 T03430106  RH  024%=      5-min Rain = 0
KMC4 121952Z 32010KT 34/11 A2997 RMK A01 T03400107  RH  024%=      5-min Rain = 0
KMC4 121953Z 33008KT 34/11 A2997 RMK A01 T03390106  RH  024%=      5-min Rain = 0
KMC4 121954Z 33007KT 34/11 A2997 RMK A01 T03390106  RH  024%=      5-min Rain = 0
KMC4 121955Z 33008KT 34/11 A2997 RMK A01 T03390105  RH  024%=      5-min Rain = 0
KMC4 121956Z 35005KT 34/11 A2997 RMK A01 T03390105  RH  024%=      5-min Rain = 0
KMC4 121957Z 32004KT 34/11 A2996 RMK A01 T03380105  RH  024%=      5-min Rain = 0
KMC4 121958Z 30002KT 34/11 A2996 RMK A01 T03400106  RH  024%=      5-min Rain = 0
KMC4 121959Z 28006KT 34/11 A2996 RMK A01 T03410106  RH  024%=      5-min Rain = 0
KMC4 122000Z 28005KT 34/11 A2996 RMK A01 T03400105  RH  024%=      5-min Rain = 0
KMC4 122001Z 29009KT 34/11 A2996 RMK A01 T03380106  RH  024%=      5-min Rain = 0
KMC4 122002Z 25005G11KT 34/10 A2996 RMK A01 T03370103  RH  024%=      5-min Rain = 0
KMC4 122003Z 27004KT 34/11 A2996 RMK A01 T03370109  RH  025%=      5-min Rain = 0
KMC4 122004Z 32003KT 34/11 A2996 RMK A01 T03410109  RH  024%=      5-min Rain = 0
KMC4 122005Z 00005KT 34/11 A2996 RMK A01 T03440105  RH  023%=      5-min Rain = 0
KMC4 122006Z 32004KT 34/11 A2996 RMK A01 T03420105  RH  024%=      5-min Rain = 0
KMC4 122007Z 30003KT 34/11 A2996 RMK A01 T03410105  RH  024%=      5-min Rain = 0
KMC4 122008Z 28005KT 34/11 A2996 RMK A01 T03420107  RH  024%=      5-min Rain = 0
KMC4 122009Z 26006KT 34/11 A2996 RMK A01 T03420107  RH  024%=      5-min Rain = 0
KMC4 122010Z 25007KT 34/11 A2995 RMK A01 T03420106  RH  024%=      5-min Rain = 0
KMC4 122011Z 25007KT 34/10 A2995 RMK A01 T03420104  RH  024%=      5-min Rain = 0
KMC4 122012Z 27007KT 34/11 A2995 RMK A01 T03400106  RH  024%=      5-min Rain = 0
KMC4 122013Z 29008KT 34/11 A2995 RMK A01 T03410105  RH  024%=      5-min Rain = 0
KMC4 122014Z 27007KT 34/11 A2995 RMK A01 T03410106  RH  024%=      5-min Rain = 0
KMC4 122015Z 28007KT 34/11 A2995 RMK A01 T03410108  RH  024%=      5-min Rain = 0
KMC4 122016Z 29006KT 34/10 A2995 RMK A01 T03420104  RH  023%=      5-min Rain = 0
KMC4 122017Z 30004KT 34/10 A2995 RMK A01 T03400103  RH  024%=      5-min Rain = 0
KMC4 122018Z 25003KT 34/11 A2995 RMK A01 T03380105  RH  024%=      5-min Rain = 0
KMC4 122019Z 23003KT 34/10 A2995 RMK A01 T03390104  RH  024%=      5-min Rain = 0
KMC4 122020Z 23003KT 34/10 A2995 RMK A01 T03390103  RH  024%=      5-min Rain = 0
KMC4 122021Z 23003KT 34/10 A2995 RMK A01 T03390102  RH  024%=      5-min Rain = 0
KMC4 122022Z 22001KT 34/10 A2995 RMK A01 T03380102  RH  024%=      5-min Rain = 0
KMC4 122023Z 22002KT 34/10 A2995 RMK A01 T03390103  RH  024%=      5-min Rain = 0
KMC4 122024Z 19002KT 34/10 A2995 RMK A01 T03400103  RH  023%=      5-min Rain = 0
KMC4 122025Z 16003KT 34/10 A2995 RMK A01 T03420103  RH  023%=      5-min Rain = 0
KMC4 122026Z 14002KT 34/10 A2995 RMK A01 T03440104  RH  023%=      5-min Rain = 0
KMC4 122027Z 08003KT 35/10 A2995 RMK A01 T03450104  RH  023%=      5-min Rain = 0
KMC4 122028Z 31002KT 35/10 A2995 RMK A01 T03450104  RH  023%=      5-min Rain = 0
KMC4 122029Z 33006KT 35/10 A2995 RMK A01 T03460104  RH  023%=      5-min Rain = 0
KMC4 122030Z 31003KT 35/10 A2995 RMK A01 T03460102  RH  023%=      5-min Rain = 0
KMC4 122031Z 34004KT 35/10 A2995 RMK A01 T03450102  RH  023%=      5-min Rain = 0
KMC4 122032Z 32006KT 35/11 A2995 RMK A01 T03460105  RH  023%=      5-min Rain = 0
KMC4 122033Z 35006KT 35/11 A2995 RMK A01 T03480106  RH  023%=      5-min Rain = 0
KMC4 122034Z 36006KT 35/10 A2994 RMK A01 T03500104  RH  022%=      5-min Rain = 0
KMC4 122035Z 00005KT 35/10 A2994 RMK A01 T03500103  RH  022%=      5-min Rain = 0
KMC4 122036Z 34009KT 35/10 A2994 RMK A01 T03490104  RH  023%=      5-min Rain = 0
KMC4 122037Z 32008KT 35/10 A2994 RMK A01 T03480103  RH  023%=      5-min Rain = 0
KMC4 122038Z 31005KT 35/10 A2994 RMK A01 T03460103  RH  023%=      5-min Rain = 0
KMC4 122039Z 28003KT 35/10 A2994 RMK A01 T03450101  RH  023%=      5-min Rain = 0
KMC4 122040Z 33005G11KT 35/10 A2994 RMK A01 T03450103  RH  023%=      5-min Rain = 0
KMC4 122041Z 33007KT 35/10 A2994 RMK A01 T03460103  RH  023%=      5-min Rain = 0
KMC4 122042Z 33007KT 35/10 A2994 RMK A01 T03450103  RH  023%=      5-min Rain = 0
KMC4 122043Z 36006KT 34/10 A2994 RMK A01 T03440102  RH  023%=      5-min Rain = 0
KMC4 122044Z 35005KT 34/10 A2994 RMK A01 T03420100  RH  023%=      5-min Rain = 0
KMC4 122045Z 34006KT 34/10 A2994 RMK A01 T03430102  RH  023%=      5-min Rain = 0
KMC4 122046Z 33008KT 35/10 A2994 RMK A01 T03450101  RH  023%=      5-min Rain = 0
KMC4 122047Z 32006KT 35/10 A2994 RMK A01 T03450103  RH  023%=      5-min Rain = 0
KMC4 122048Z 34004KT 34/10 A2994 RMK A01 T03440102  RH  023%=      5-min Rain = 0
KMC4 122049Z 35006KT 34/10 A2993 RMK A01 T03430101  RH  023%=      5-min Rain = 0
KMC4 122050Z 33004KT 34/10 A2993 RMK A01 T03430102  RH  023%=      5-min Rain = 0
KMC4 122051Z 30004KT 34/10 A2993 RMK A01 T03440104  RH  023%=      5-min Rain = 0
KMC4 122052Z 28004KT 35/11 A2993 RMK A01 T03460105  RH  023%=      5-min Rain = 0
KMC4 122053Z 28002KT 35/10 A2993 RMK A01 T03470104  RH  023%=      5-min Rain = 0
KMC4 122054Z 34002KT 35/10 A2993 RMK A01 T03490103  RH  022%=      5-min Rain = 0
KMC4 122055Z 36003KT 35/10 A2993 RMK A01 T03490100  RH  022%=      5-min Rain = 0
KMC4 122056Z 01003KT 35/10 A2993 RMK A01 T03480100  RH  022%=      5-min Rain = 0
KMC4 122057Z 35002KT 35/10 A2993 RMK A01 T03460100  RH  022%=      5-min Rain = 0
KMC4 122058Z 31002KT 35/10 A2993 RMK A01 T03460101  RH  022%=      5-min Rain = 0
KMC4 122059Z 34004KT 35/10 A2993 RMK A01 T03470101  RH  022%=      5-min Rain = 0
KMC4 122100Z 35002KT 35/10 A2993 RMK A01 T03470101  RH  022%=      5-min Rain = 0
KMC4 122101Z 32002KT 35/10 A2993 RMK A01 T03470100  RH  022%=      5-min Rain = 0
KMC4 122102Z 30005KT 35/10 A2993 RMK A01 T03470103  RH  023%=      5-min Rain = 0
KMC4 122103Z 29005KT 35/10 A2993 RMK A01 T03470103  RH  023%=      5-min Rain = 0
KMC4 122104Z 28006KT 35/10 A2993 RMK A01 T03460103  RH  023%=      5-min Rain = 0
KMC4 122105Z 27006KT 35/10 A2992 RMK A01 T03450102  RH  023%=      5-min Rain = 0
KMC4 122106Z 27007KT 35/11 A2992 RMK A01 T03460106  RH  023%=      5-min Rain = 0
KMC4 122107Z 26006KT 35/10 A2992 RMK A01 T03480103  RH  023%=      5-min Rain = 0
KMC4 122108Z 25005KT 35/10 A2992 RMK A01 T03480104  RH  023%=      5-min Rain = 0
KMC4 122109Z 24004KT 35/10 A2992 RMK A01 T03490101  RH  022%=      5-min Rain = 0
KMC4 122110Z 23005KT 35/10 A2992 RMK A01 T03480101  RH  022%=      5-min Rain = 0
KMC4 122111Z 25004KT 35/10 A2992 RMK A01 T03480101  RH  022%=      5-min Rain = 0
KMC4 122112Z 28004KT 35/10 A2992 RMK A01 T03490104  RH  023%=      5-min Rain = 0
KMC4 122113Z 31005KT 35/10 A2992 RMK A01 T03500102  RH  022%=      5-min Rain = 0
KMC4 122114Z 31003KT 35/11 A2992 RMK A01 T03500105  RH  023%=      5-min Rain = 0
KMC4 122115Z 35002KT 35/10 A2992 RMK A01 T03510103  RH  022%=      5-min Rain = 0
KMC4 122116Z 01002KT 35/10 A2992 RMK A01 T03520101  RH  022%=      5-min Rain = 0
KMC4 122117Z 32003KT 35/10 A2992 RMK A01 T03510101  RH  022%=      5-min Rain = 0
KMC4 122118Z 01004KT 35/10 A2992 RMK A01 T03520102  RH  022%=      5-min Rain = 0
KMC4 122119Z 36006KT 35/10 A2992 RMK A01 T03540098  RH  021%=      5-min Rain = 0
KMC4 122120Z 02004KT 35/10 A2992 RMK A01 T03520098  RH  021%=      5-min Rain = 0
KMC4 122121Z 02002KT 35/10 A2992 RMK A01 T03510098  RH  021%=      5-min Rain = 0
KMC4 122122Z 31005KT 35/10 A2992 RMK A01 T03510098  RH  021%=      5-min Rain = 0
KMC4 122123Z 32006KT 35/10 A2992 RMK A01 T03510098  RH  021%=      5-min Rain = 0
KMC4 122124Z 33007KT 35/10 A2992 RMK A01 T03510098  RH  021%=      5-min Rain = 0
KMC4 122125Z 30006KT 35/10 A2992 RMK A01 T03510098  RH  021%=      5-min Rain = 0
KMC4 122126Z 30008KT 35/10 A2991 RMK A01 T03510099  RH  022%=      5-min Rain = 0
KMC4 122127Z 32006KT 35/10 A2992 RMK A01 T03520099  RH  021%=      5-min Rain = 0
KMC4 122128Z 35005KT 35/10 A2991 RMK A01 T03520099  RH  021%=      5-min Rain = 0
KMC4 122129Z 36007KT 35/10 A2991 RMK A01 T03530099  RH  021%=      5-min Rain = 0
KMC4 122130Z 36007KT 35/10 A2991 RMK A01 T03510097  RH  021%=      5-min Rain = 0
KMC4 122131Z 36006KT 35/10 A2991 RMK A01 T03480098  RH  022%=      5-min Rain = 0
KMC4 122132Z 00007KT 35/10 A2991 RMK A01 T03490098  RH  022%=      5-min Rain = 0
KMC4 122133Z 01005KT 35/10 A2991 RMK A01 T03490098  RH  022%=      5-min Rain = 0
KMC4 122134Z 01007KT 35/10 A2991 RMK A01 T03480097  RH  022%=      5-min Rain = 0
KMC4 122135Z 03006KT 35/10 A2991 RMK A01 T03480097  RH  022%=      5-min Rain = 0
KMC4 122136Z 04006KT 35/10 A2991 RMK A01 T03480097  RH  022%=      5-min Rain = 0
KMC4 122137Z 04006KT 35/10 A2991 RMK A01 T03480097  RH  022%=      5-min Rain = 0
KMC4 122138Z 03007KT 35/10 A2991 RMK A01 T03480097  RH  022%=      5-min Rain = 0
KMC4 122139Z 03005KT 35/10 A2991 RMK A01 T03470096  RH  022%=      5-min Rain = 0
KMC4 122140Z 04004KT 35/10 A2991 RMK A01 T03470097  RH  022%=      5-min Rain = 0
KMC4 122141Z 06008KT 35/10 A2991 RMK A01 T03480098  RH  022%=      5-min Rain = 0
KMC4 122142Z 04007KT 35/10 A2991 RMK A01 T03490096  RH  021%=      5-min Rain = 0
KMC4 122143Z 03006KT 35/10 A2991 RMK A01 T03490096  RH  021%=      5-min Rain = 0
KMC4 122144Z 03005KT 35/10 A2991 RMK A01 T03480095  RH  021%=      5-min Rain = 0
KMC4 122145Z 02003KT 35/10 A2991 RMK A01 T03470097  RH  022%=      5-min Rain = 0
KMC4 122146Z 35004KT 35/10 A2991 RMK A01 T03480096  RH  021%=      5-min Rain = 0
KMC4 122147Z 30003KT 35/10 A2991 RMK A01 T03490095  RH  021%=      5-min Rain = 0
KMC4 122148Z 32005KT 35/10 A2991 RMK A01 T03500096  RH  021%=      5-min Rain = 0
KMC4 122149Z 31004KT 35/10 A2991 RMK A01 T03510097  RH  021%=      5-min Rain = 0
KMC4 122150Z 34006KT 35/10 A2991 RMK A01 T03510095  RH  021%=      5-min Rain = 0
KMC4 122151Z 33003KT 35/09 A2991 RMK A01 T03490094  RH  021%=      5-min Rain = 0
KMC4 122152Z 34002KT 35/09 A2991 RMK A01 T03480094  RH  021%=      5-min Rain = 0
KMC4 122153Z 04000KT 35/10 A2991 RMK A01 T03490095  RH  021%=      5-min Rain = 0
KMC4 122154Z 17003KT 35/10 A2991 RMK A01 T03520095  RH  021%=      5-min Rain = 0
KMC4 122155Z 17004KT 35/09 A299 RMK A01 T03530093  RH  021%=      5-min Rain = 0
KMC4 122156Z 17004KT 35/09 A299 RMK A01 T03510093  RH  021%=      5-min Rain = 0
KMC4 122157Z 17003KT 35/09 A299 RMK A01 T03480092  RH  021%=      5-min Rain = 0
KMC4 122158Z 16004KT 35/09 A299 RMK A01 T03480093  RH  021%=      5-min Rain = 0
KMC4 122159Z 14004KT 35/10 A299 RMK A01 T03470095  RH  021%=      5-min Rain = 0
KMC4 122200Z 12005KT 35/10 A299 RMK A01 T03500095  RH  021%=      5-min Rain = 0
KMC4 122201Z 14003KT 35/09 A299 RMK A01 T03520093  RH  021%=      5-min Rain = 0
KMC4 122202Z 18003KT 35/09 A299 RMK A01 T03520093  RH  021%=      5-min Rain = 0
KMC4 122203Z 20003KT 35/10 A299 RMK A01 T03520095  RH  021%=      5-min Rain = 0
KMC4 122204Z 22004KT 35/10 A299 RMK A01 T03520095  RH  021%=      5-min Rain = 0
KMC4 122205Z 25003KT 35/09 A299 RMK A01 T03520093  RH  021%=      5-min Rain = 0
KMC4 122206Z 27001KT 35/09 A299 RMK A01 T03520094  RH  021%=      5-min Rain = 0
KMC4 122207Z 33002KT 35/10 A299 RMK A01 T03520095  RH  021%=      5-min Rain = 0
KMC4 122208Z 33003KT 35/09 A299 RMK A01 T03520094  RH  021%=      5-min Rain = 0
KMC4 122209Z 34002KT 35/09 A299 RMK A01 T03510093  RH  021%=      5-min Rain = 0
KMC4 122210Z 35005KT 35/09 A299 RMK A01 T03510093  RH  021%=      5-min Rain = 0
KMC4 122211Z 35006KT 35/09 A299 RMK A01 T03520092  RH  021%=      5-min Rain = 0
KMC4 122212Z 00004KT 35/09 A299 RMK A01 T03520091  RH  020%=      5-min Rain = 0
KMC4 122213Z 35009KT 35/09 A299 RMK A01 T03510092  RH  021%=      5-min Rain = 0
KMC4 122214Z 32007KT 35/09 A299 RMK A01 T03510092  RH  021%=      5-min Rain = 0
KMC4 122215Z 33004KT 35/09 A299 RMK A01 T03500093  RH  021%=      5-min Rain = 0
KMC4 122216Z 01003KT 35/09 A299 RMK A01 T03510093  RH  021%=      5-min Rain = 0
KMC4 122217Z 36004KT 35/09 A299 RMK A01 T03530093  RH  021%=      5-min Rain = 0
KMC4 122218Z 01004KT 35/09 A299 RMK A01 T03520091  RH  020%=      5-min Rain = 0
KMC4 122219Z 00002KT 35/09 A299 RMK A01 T03520092  RH  020%=      5-min Rain = 0
KMC4 122220Z 04001KT 35/09 A299 RMK A01 T03510090  RH  020%=      5-min Rain = 0
KMC4 122221Z 04002KT 35/09 A299 RMK A01 T03520090  RH  020%=      5-min Rain = 0
KMC4 122222Z 04005KT 35/09 A299 RMK A01 T03530092  RH  020%=      5-min Rain = 0
KMC4 122223Z 05006KT 35/09 A299 RMK A01 T03520094  RH  021%=      5-min Rain = 0
KMC4 122224Z 06004KT 35/09 A299 RMK A01 T03520094  RH  021%=      5-min Rain = 0
KMC4 122225Z 07005KT 35/09 A299 RMK A01 T03520093  RH  021%=      5-min Rain = 0
KMC4 122226Z 08005KT 35/09 A299 RMK A01 T03510093  RH  021%=      5-min Rain = 0
KMC4 122227Z 05005KT 35/09 A299 RMK A01 T03510094  RH  021%=      5-min Rain = 0
KMC4 122228Z 03005KT 35/09 A299 RMK A01 T03510092  RH  021%=      5-min Rain = 0
KMC4 122229Z 01006KT 35/09 A299 RMK A01 T03500093  RH  021%=      5-min Rain = 0
KMC4 122230Z 02005KT 35/09 A299 RMK A01 T03500092  RH  021%=      5-min Rain = 0
KMC4 122231Z 04003KT 35/09 A299 RMK A01 T03490094  RH  021%=      5-min Rain = 0
KMC4 122232Z 08002KT 35/09 A299 RMK A01 T03490092  RH  021%=      5-min Rain = 0
KMC4 122233Z 12000KT 35/09 A299 RMK A01 T03490092  RH  021%=      5-min Rain = 0
KMC4 122234Z 03002KT 35/09 A299 RMK A01 T03500093  RH  021%=      5-min Rain = 0
KMC4 122235Z 04002KT 35/09 A299 RMK A01 T03500093  RH  021%=      5-min Rain = 0
KMC4 122236Z 04003KT 35/09 A299 RMK A01 T03510093  RH  021%=      5-min Rain = 0
KMC4 122237Z 04004KT 35/09 A2989 RMK A01 T03510093  RH  021%=      5-min Rain = 0
KMC4 122238Z 08002KT 35/09 A2989 RMK A01 T03510093  RH  021%=      5-min Rain = 0
KMC4 122239Z 08004KT 35/09 A2989 RMK A01 T03510093  RH  021%=      5-min Rain = 0
KMC4 122240Z 08005KT 35/09 A2989 RMK A01 T03510093  RH  021%=      5-min Rain = 0
KMC4 122241Z 07005KT 35/09 A2989 RMK A01 T03520092  RH  020%=      5-min Rain = 0
KMC4 122242Z 07004KT 35/09 A2989 RMK A01 T03520093  RH  021%=      5-min Rain = 0
KMC4 122243Z 10002KT 35/09 A2989 RMK A01 T03520092  RH  020%=      5-min Rain = 0
KMC4 122244Z 08004KT 35/09 A2989 RMK A01 T03510091  RH  020%=      5-min Rain = 0
KMC4 122245Z 07002KT 35/09 A2989 RMK A01 T03510092  RH  021%=      5-min Rain = 0
KMC4 122246Z 04003KT 35/09 A2989 RMK A01 T03510093  RH  021%=      5-min Rain = 0
KMC4 122247Z 04002KT 35/09 A2989 RMK A01 T03510093  RH  021%=      5-min Rain = 0
KMC4 122248Z 06003KT 35/09 A2989 RMK A01 T03510091  RH  020%=      5-min Rain = 0
KMC4 122249Z 02006KT 35/09 A2989 RMK A01 T03530092  RH  020%=      5-min Rain = 0
KMC4 122250Z 01005KT 35/09 A2989 RMK A01 T03540092  RH  020%=      5-min Rain = 0
KMC4 122251Z 01007KT 35/09 A2989 RMK A01 T03540091  RH  020%=      5-min Rain = 0
KMC4 122252Z 02007KT 35/09 A2989 RMK A01 T03530090  RH  020%=      5-min Rain = 0
KMC4 122253Z 02005KT 35/09 A2989 RMK A01 T03530089  RH  020%=      5-min Rain = 0
KMC4 122254Z 36004KT 35/09 A2989 RMK A01 T03520088  RH  020%=      5-min Rain = 0
KMC4 122255Z 34002KT 35/09 A2989 RMK A01 T03510087  RH  020%=      5-min Rain = 0
KMC4 122256Z 29003KT 35/09 A2989 RMK A01 T03520093  RH  021%=      5-min Rain = 0
KMC4 122257Z 27004KT 35/09 A2989 RMK A01 T03530093  RH  020%=      5-min Rain = 0
KMC4 122258Z 30005KT 35/09 A2989 RMK A01 T03540094  RH  020%=      5-min Rain = 0
KMC4 122259Z 31005KT 36/09 A2989 RMK A01 T03550093  RH  020%=      5-min Rain = 0
KMC4 122300Z 36003KT 36/09 A2989 RMK A01 T03550091  RH  020%=      5-min Rain = 0
KMC4 122301Z 32003KT 35/09 A2989 RMK A01 T03540093  RH  020%=      5-min Rain = 0
KMC4 122302Z 34003KT 35/09 A2989 RMK A01 T03530090  RH  020%=      5-min Rain = 0
KMC4 122303Z 06004KT 35/09 A2989 RMK A01 T03530090  RH  020%=      5-min Rain = 0
KMC4 122304Z 08002KT 35/09 A2989 RMK A01 T03520089  RH  020%=      5-min Rain = 0
KMC4 122305Z 11002KT 35/09 A2989 RMK A01 T03520089  RH  020%=      5-min Rain = 0
KMC4 122306Z 09001KT 35/09 A2989 RMK A01 T03530089  RH  020%=      5-min Rain = 0
KMC4 122307Z 05004KT 35/09 A2989 RMK A01 T03530089  RH  020%=      5-min Rain = 0
KMC4 122308Z 09002KT 35/09 A2989 RMK A01 T03530089  RH  020%=      5-min Rain = 0
KMC4 122309Z 09004G9KT 35/09 A2989 RMK A01 T03520088  RH  020%=      5-min Rain = 0
KMC4 122310Z 03007KT 35/09 A2989 RMK A01 T03520090  RH  020%=      5-min Rain = 0
KMC4 122311Z 01007KT 35/09 A2989 RMK A01 T03530091  RH  020%=      5-min Rain = 0
KMC4 122312Z 02006KT 35/09 A2989 RMK A01 T03520092  RH  020%=      5-min Rain = 0
KMC4 122313Z 01006KT 35/09 A2989 RMK A01 T03510092  RH  020%=      5-min Rain = 0
KMC4 122314Z 01007KT 35/09 A2989 RMK A01 T03500091  RH  020%=      5-min Rain = 0
KMC4 122315Z 03005KT 35/09 A2989 RMK A01 T03500091  RH  021%=      5-min Rain = 0
KMC4 122316Z 01005KT 35/09 A2989 RMK A01 T03490091  RH  021%=      5-min Rain = 0
KMC4 122317Z 35004KT 35/09 A2989 RMK A01 T03490093  RH  021%=      5-min Rain = 0
KMC4 122318Z 04005G10KT 35/09 A2989 RMK A01 T03510093  RH  021%=      5-min Rain = 0
KMC4 122319Z 03008KT 35/09 A2989 RMK A01 T03510093  RH  021%=      5-min Rain = 0
KMC4 122320Z 04007KT 35/09 A2989 RMK A01 T03510092  RH  021%=      5-min Rain = 0
KMC4 122321Z 04006KT 35/09 A2989 RMK A01 T03500092  RH  021%=      5-min Rain = 0
KMC4 122322Z 06006KT 35/09 A2989 RMK A01 T03490092  RH  021%=      5-min Rain = 0
KMC4 122323Z 07006KT 35/09 A2989 RMK A01 T03490092  RH  021%=      5-min Rain = 0
KMC4 122324Z 09006KT 35/09 A2989 RMK A01 T03490091  RH  021%=      5-min Rain = 0
KMC4 122325Z 09005KT 35/09 A2989 RMK A01 T03490091  RH  021%=      5-min Rain = 0
KMC4 122326Z 07003KT 35/09 A2989 RMK A01 T03480090  RH  021%=      5-min Rain = 0
KMC4 122327Z 07003KT 35/09 A2989 RMK A01 T03480091  RH  021%=      5-min Rain = 0
KMC4 122328Z 07003KT 35/09 A2989 RMK A01 T03490091  RH  021%=      5-min Rain = 0
KMC4 122329Z 07005KT 35/09 A2989 RMK A01 T03490091  RH  021%=      5-min Rain = 0
KMC4 122330Z 03005KT 35/09 A2989 RMK A01 T03500093  RH  021%=      5-min Rain = 0
KMC4 122331Z 00004KT 35/09 A2989 RMK A01 T03500093  RH  021%=      5-min Rain = 0
KMC4 122332Z 02004KT 35/09 A2989 RMK A01 T03510093  RH  021%=      5-min Rain = 0
KMC4 122333Z 03006KT 35/09 A2989 RMK A01 T03500092  RH  021%=      5-min Rain = 0
KMC4 122334Z 02007KT 35/09 A2989 RMK A01 T03500093  RH  021%=      5-min Rain = 0
KMC4 122335Z 02005KT 35/09 A2989 RMK A01 T03490091  RH  021%=      5-min Rain = 0
KMC4 122336Z 03006KT 35/09 A2989 RMK A01 T03490093  RH  021%=      5-min Rain = 0
KMC4 122337Z 02005KT 35/09 A2989 RMK A01 T03490094  RH  021%=      5-min Rain = 0
KMC4 122338Z 03005KT 35/09 A2989 RMK A01 T03500094  RH  021%=      5-min Rain = 0
KMC4 122339Z 04006KT 35/09 A2989 RMK A01 T03500094  RH  021%=      5-min Rain = 0
KMC4 122340Z 03004KT 35/09 A2989 RMK A01 T03500093  RH  021%=      5-min Rain = 0
KMC4 122341Z 05005KT 35/09 A2989 RMK A01 T03500094  RH  021%=      5-min Rain = 0
KMC4 122342Z 06005KT 35/09 A2989 RMK A01 T03500093  RH  021%=      5-min Rain = 0
KMC4 122343Z 09005KT 35/09 A2988 RMK A01 T03500091  RH  021%=      5-min Rain = 0
KMC4 122344Z 10005KT 35/09 A2988 RMK A01 T03490091  RH  021%=      5-min Rain = 0
KMC4 122345Z 07004KT 35/09 A2988 RMK A01 T03490091  RH  021%=      5-min Rain = 0
KMC4 122346Z 03006KT 35/09 A2988 RMK A01 T03480092  RH  021%=      5-min Rain = 0
KMC4 122347Z 03006KT 35/09 A2988 RMK A01 T03480093  RH  021%=      5-min Rain = 0
KMC4 122348Z 02007KT 35/09 A2988 RMK A01 T03480092  RH  021%=      5-min Rain = 0
KMC4 122349Z 03008KT 35/09 A2988 RMK A01 T03470093  RH  021%=      5-min Rain = 0
KMC4 122350Z 04008KT 35/09 A2988 RMK A01 T03470094  RH  021%=      5-min Rain = 0
KMC4 122351Z 05007KT 35/09 A2988 RMK A01 T03470094  RH  021%=      5-min Rain = 0
KMC4 122352Z 06008KT 35/09 A2988 RMK A01 T03480093  RH  021%=      5-min Rain = 0
KMC4 122353Z 07006KT 35/09 A2988 RMK A01 T03470091  RH  021%=      5-min Rain = 0
KMC4 122354Z 08006KT 35/09 A2988 RMK A01 T03460091  RH  021%=      5-min Rain = 0
KMC4 122355Z 06005KT 35/09 A2988 RMK A01 T03460092  RH  021%=      5-min Rain = 0
KMC4 122356Z 06006KT 35/09 A2988 RMK A01 T03460093  RH  021%=      5-min Rain = 0
KMC4 122357Z 06007KT 35/09 A2988 RMK A01 T03460092  RH  021%=      5-min Rain = 0
KMC4 122358Z 06007KT 35/09 A2988 RMK A01 T03460093  RH  021%=      5-min Rain = 0
KMC4 122359Z 05006KT 35/09 A2988 RMK A01 T03460092  RH  021%=      5-min Rain = 0
KMC4 130000Z 06006KT 35/09 A2988 RMK A01 T03460092  RH  021%=      5-min Rain = 0
KMC4 130001Z 06005KT 35/09 A2988 RMK A01 T03450091  RH  021%=      5-min Rain = 0
KMC4 130002Z 06005KT 34/09 A2988 RMK A01 T03440092  RH  021%=      5-min Rain = 0
KMC4 130003Z 09004KT 34/09 A2988 RMK A01 T03440092  RH  021%=      5-min Rain = 0
KMC4 130004Z 08004KT 34/09 A2988 RMK A01 T03440092  RH  021%=      5-min Rain = 0
KMC4 130005Z 08004KT 35/09 A2988 RMK A01 T03450092  RH  021%=      5-min Rain = 0
KMC4 130006Z 10004KT 35/09 A2988 RMK A01 T03450092  RH  021%=      5-min Rain = 0
KMC4 130007Z 09005KT 35/09 A2988 RMK A01 T03450093  RH  021%=      5-min Rain = 0
KMC4 130008Z 09005KT 34/09 A2988 RMK A01 T03440093  RH  021%=      5-min Rain = 0
KMC4 130009Z 09007KT 34/09 A2988 RMK A01 T03440092  RH  021%=      5-min Rain = 0
KMC4 130010Z 08007KT 34/09 A2988 RMK A01 T03440092  RH  021%=      5-min Rain = 0
KMC4 130011Z 07006KT 34/09 A2988 RMK A01 T03430091  RH  021%=      5-min Rain = 0
KMC4 130012Z 07007KT 34/09 A2988 RMK A01 T03430091  RH  021%=      5-min Rain = 0
KMC4 130013Z 08006KT 34/09 A2988 RMK A01 T03430092  RH  022%=      5-min Rain = 0
KMC4 130014Z 09006KT 34/09 A2988 RMK A01 T03430091  RH  021%=      5-min Rain = 0
KMC4 130015Z 09005KT 34/09 A2988 RMK A01 T03420091  RH  021%=      5-min Rain = 0
KMC4 130016Z 08006KT 34/09 A2988 RMK A01 T03420091  RH  022%=      5-min Rain = 0
KMC4 130017Z 08006KT 34/09 A2988 RMK A01 T03420091  RH  022%=      5-min Rain = 0
KMC4 130018Z 08006KT 34/09 A2988 RMK A01 T03420092  RH  022%=      5-min Rain = 0
KMC4 130019Z 08005KT 34/09 A2988 RMK A01 T03410092  RH  022%=      5-min Rain = 0
KMC4 130020Z 09004KT 34/09 A2988 RMK A01 T03410093  RH  022%=      5-min Rain = 0
KMC4 130021Z 09005KT 34/09 A2988 RMK A01 T03410093  RH  022%=      5-min Rain = 0
KMC4 130022Z 09005KT 34/09 A2988 RMK A01 T03400092  RH  022%=      5-min Rain = 0
KMC4 130023Z 09004KT 34/09 A2988 RMK A01 T03400093  RH  022%=      5-min Rain = 0
KMC4 130024Z 09004KT 34/09 A2988 RMK A01 T03400093  RH  022%=      5-min Rain = 0
KMC4 130025Z 10004KT 34/09 A2988 RMK A01 T03400093  RH  022%=      5-min Rain = 0
KMC4 130026Z 09004KT 34/09 A2988 RMK A01 T03390093  RH  022%=      5-min Rain = 0
KMC4 130027Z 09004KT 34/09 A2988 RMK A01 T03390092  RH  022%=      5-min Rain = 0
KMC4 130028Z 10004KT 34/09 A2988 RMK A01 T03390093  RH  022%=      5-min Rain = 0
KMC4 130029Z 10004KT 34/09 A2988 RMK A01 T03390093  RH  022%=      5-min Rain = 0
KMC4 130030Z 09004KT 34/09 A2988 RMK A01 T03390094  RH  022%=      5-min Rain = 0
KMC4 130031Z 08004KT 34/09 A2988 RMK A01 T03380094  RH  022%=      5-min Rain = 0
KMC4 130032Z 09003KT 34/09 A2988 RMK A01 T03380093  RH  022%=      5-min Rain = 0
KMC4 130033Z 10004KT 34/09 A2988 RMK A01 T03370093  RH  022%=      5-min Rain = 0
KMC4 130034Z 09003KT 34/09 A2988 RMK A01 T03370093  RH  022%=      5-min Rain = 0
KMC4 130035Z 09004KT 34/09 A2988 RMK A01 T03370093  RH  022%=      5-min Rain = 0
KMC4 130036Z 10004KT 34/09 A2988 RMK A01 T03370093  RH  022%=      5-min Rain = 0
KMC4 130037Z 10003KT 34/09 A2988 RMK A01 T03370093  RH  022%=      5-min Rain = 0
KMC4 130038Z 11003KT 34/09 A2988 RMK A01 T03360094  RH  023%=      5-min Rain = 0
KMC4 130039Z 10004KT 34/09 A2988 RMK A01 T03360094  RH  023%=      5-min Rain = 0
KMC4 130040Z 09003KT 34/09 A2988 RMK A01 T03360094  RH  023%=      5-min Rain = 0
KMC4 130041Z 07003KT 34/09 A2988 RMK A01 T03350094  RH  023%=      5-min Rain = 0
KMC4 130042Z 08003KT 34/09 A2988 RMK A01 T03350094  RH  023%=      5-min Rain = 0
KMC4 130043Z 07003KT 34/10 A2988 RMK A01 T03350095  RH  023%=      5-min Rain = 0
KMC4 130044Z 08002KT 33/10 A2988 RMK A01 T03340095  RH  023%=      5-min Rain = 0
KMC4 130045Z 09003KT 33/10 A2988 RMK A01 T03330095  RH  023%=      5-min Rain = 0
KMC4 130046Z 09003KT 33/10 A2988 RMK A01 T03320095  RH  023%=      5-min Rain = 0
KMC4 130047Z 10003KT 33/10 A2988 RMK A01 T03320095  RH  023%=      5-min Rain = 0
KMC4 130048Z 09003KT 33/09 A2988 RMK A01 T03320094  RH  023%=      5-min Rain = 0
KMC4 130049Z 09003KT 33/10 A2988 RMK A01 T03310095  RH  023%=      5-min Rain = 0
KMC4 130050Z 09003KT 33/09 A2988 RMK A01 T03300094  RH  023%=      5-min Rain = 0
KMC4 130051Z 09003KT 33/10 A2988 RMK A01 T03300095  RH  024%=      5-min Rain = 0
KMC4 130052Z 09002KT 33/10 A2988 RMK A01 T03300095  RH  024%=      5-min Rain = 0
KMC4 130053Z 09003KT 33/10 A2988 RMK A01 T03290096  RH  024%=      5-min Rain = 0
KMC4 130054Z 09003KT 33/10 A2988 RMK A01 T03280095  RH  024%=      5-min Rain = 0
KMC4 130055Z 10002KT 33/10 A2988 RMK A01 T03270095  RH  024%=      5-min Rain = 0
KMC4 130056Z 09002KT 33/10 A2987 RMK A01 T03260096  RH  024%=      5-min Rain = 0
KMC4 130057Z 10002KT 33/10 A2988 RMK A01 T03250096  RH  024%=      5-min Rain = 0
KMC4 130058Z 10002KT 33/10 A2988 RMK A01 T03250096  RH  024%=      5-min Rain = 0
KMC4 130059Z 11002KT 32/10 A2988 RMK A01 T03240096  RH  025%=      5-min Rain = 0
KMC4 130100Z 12002KT 32/10 A2988 RMK A01 T03230097  RH  025%=      5-min Rain = 0
KMC4 130101Z 14001KT 32/10 A2988 RMK A01 T03220100  RH  025%=      5-min Rain = 0
KMC4 130102Z 14002KT 32/10 A2988 RMK A01 T03210101  RH  026%=      5-min Rain = 0
KMC4 130103Z 14002KT 32/10 A2988 RMK A01 T03200101  RH  026%=      5-min Rain = 0
KMC4 130104Z 15002KT 32/10 A2988 RMK A01 T03180101  RH  026%=      5-min Rain = 0
KMC4 130105Z 15002KT 32/10 A2988 RMK A01 T03170100  RH  026%=      5-min Rain = 0
KMC4 130106Z 16002KT 32/10 A2988 RMK A01 T03160101  RH  027%=      5-min Rain = 0
KMC4 130107Z 17003KT 31/10 A2988 RMK A01 T03140101  RH  027%=      5-min Rain = 0
KMC4 130108Z 17003KT 31/10 A2988 RMK A01 T03130102  RH  027%=      5-min Rain = 0
KMC4 130109Z 18003KT 31/10 A2988 RMK A01 T03120102  RH  027%=      5-min Rain = 0
KMC4 130110Z 18003KT 31/10 A2988 RMK A01 T03100101  RH  027%=      5-min Rain = 0
KMC4 130111Z 18003KT 31/10 A2988 RMK A01 T03090101  RH  028%=      5-min Rain = 0
KMC4 130112Z 18004KT 31/10 A2988 RMK A01 T03080101  RH  028%=      5-min Rain = 0
KMC4 130113Z 17004KT 31/10 A2988 RMK A01 T03070101  RH  028%=      5-min Rain = 0
KMC4 130114Z 17003KT 31/10 A2988 RMK A01 T03060100  RH  028%=      5-min Rain = 0
KMC4 130115Z 17003KT 31/10 A2988 RMK A01 T03050099  RH  028%=      5-min Rain = 0
KMC4 130116Z 18003KT 31/10 A2988 RMK A01 T03050099  RH  028%=      5-min Rain = 0
KMC4 130117Z 18003KT 31/10 A2988 RMK A01 T03050099  RH  028%=      5-min Rain = 0
KMC4 130118Z 17004KT 31/10 A2988 RMK A01 T03050099  RH  028%=      5-min Rain = 0
KMC4 130119Z 16003KT 31/10 A2988 RMK A01 T03050099  RH  028%=      5-min Rain = 0
KMC4 130120Z 16004KT 30/10 A2988 RMK A01 T03040099  RH  028%=      5-min Rain = 0
KMC4 130121Z 16004KT 30/10 A2988 RMK A01 T03030098  RH  028%=      5-min Rain = 0
KMC4 130122Z 16003KT 30/10 A2988 RMK A01 T03030098  RH  028%=      5-min Rain = 0
KMC4 130123Z 16003KT 30/10 A2988 RMK A01 T03030099  RH  028%=      5-min Rain = 0
KMC4 130124Z 17003KT 30/10 A2988 RMK A01 T03020098  RH  028%=      5-min Rain = 0
KMC4 130125Z 17003KT 30/10 A2988 RMK A01 T03020098  RH  028%=      5-min Rain = 0
KMC4 130126Z 18003KT 30/10 A2988 RMK A01 T03020097  RH  028%=      5-min Rain = 0
KMC4 130127Z 17003KT 30/10 A2988 RMK A01 T03030098  RH  028%=      5-min Rain = 0
KMC4 130128Z 17003KT 30/10 A2988 RMK A01 T03030098  RH  028%=      5-min Rain = 0
KMC4 130129Z 18003KT 30/10 A2988 RMK A01 T03030100  RH  028%=      5-min Rain = 0
KMC4 130130Z 17003KT 30/10 A2988 RMK A01 T03020099  RH  029%=      5-min Rain = 0
KMC4 130131Z 17002KT 30/10 A2988 RMK A01 T03010099  RH  029%=      5-min Rain = 0
KMC4 130132Z 17002KT 30/10 A2988 RMK A01 T03000099  RH  029%=      5-min Rain = 0
KMC4 130133Z 17002KT 30/10 A2988 RMK A01 T02990100  RH  029%=      5-min Rain = 0
KMC4 130134Z 17002KT 30/10 A2988 RMK A01 T02980100  RH  029%=      5-min Rain = 0
KMC4 130135Z 17002KT 30/10 A2988 RMK A01 T02970100  RH  029%=      5-min Rain = 0
KMC4 130136Z 16001KT 30/10 A2988 RMK A01 T02960100  RH  030%=      5-min Rain = 0
KMC4 130137Z 16001KT 30/10 A2988 RMK A01 T02960100  RH  030%=      5-min Rain = 0
KMC4 130138Z 15001KT 30/10 A2988 RMK A01 T02950099  RH  029%=      5-min Rain = 0
KMC4 130139Z 16001KT 30/10 A2988 RMK A01 T02950098  RH  029%=      5-min Rain = 0
KMC4 130140Z 16001KT 30/10 A2988 RMK A01 T02950099  RH  030%=      5-min Rain = 0
KMC4 130141Z 15001KT 30/10 A2988 RMK A01 T02950099  RH  030%=      5-min Rain = 0
KMC4 130142Z 14001KT 30/10 A2988 RMK A01 T02950098  RH  029%=      5-min Rain = 0
KMC4 130143Z 14001KT 30/10 A2988 RMK A01 T02960098  RH  029%=      5-min Rain = 0
KMC4 130144Z 14002KT 30/10 A2988 RMK A01 T02960098  RH  029%=      5-min Rain = 0
KMC4 130145Z 14002KT 30/10 A2988 RMK A01 T02960098  RH  029%=      5-min Rain = 0
KMC4 130146Z 14002KT 30/10 A2988 RMK A01 T02970098  RH  029%=      5-min Rain = 0
KMC4 130147Z 13002KT 30/10 A2988 RMK A01 T02970097  RH  029%=      5-min Rain = 0
KMC4 130148Z 13002KT 30/10 A2988 RMK A01 T02970099  RH  029%=      5-min Rain = 0
KMC4 130149Z 13002KT 30/10 A2988 RMK A01 T02980099  RH  029%=      5-min Rain = 0
KMC4 130150Z 14002KT 30/10 A2988 RMK A01 T02980100  RH  029%=      5-min Rain = 0
KMC4 130151Z 14002KT 30/10 A2988 RMK A01 T02980099  RH  029%=      5-min Rain = 0
KMC4 130152Z 14003KT 30/10 A2988 RMK A01 T02980099  RH  029%=      5-min Rain = 0
KMC4 130153Z 14003KT 30/10 A2988 RMK A01 T02980099  RH  029%=      5-min Rain = 0
KMC4 130154Z 15003KT 30/10 A2988 RMK A01 T02980100  RH  029%=      5-min Rain = 0
KMC4 130155Z 15003KT 30/10 A2988 RMK A01 T02980099  RH  029%=      5-min Rain = 0
KMC4 130156Z 15003KT 30/10 A2989 RMK A01 T02980099  RH  029%=      5-min Rain = 0
KMC4 130157Z 15003KT 30/10 A2989 RMK A01 T02980100  RH  029%=      5-min Rain = 0
KMC4 130158Z 15003KT 30/10 A2989 RMK A01 T02980100  RH  029%=      5-min Rain = 0
KMC4 130159Z 15003KT 30/10 A2989 RMK A01 T02970100  RH  029%=      5-min Rain = 0
KMC4 130200Z 15003KT 30/10 A2989 RMK A01 T02960100  RH  030%=      5-min Rain = 0
KMC4 130201Z 15003KT 30/10 A2989 RMK A01 T02960101  RH  030%=      5-min Rain = 0
KMC4 130202Z 14003KT 29/10 A2989 RMK A01 T02940101  RH  030%=      5-min Rain = 0
KMC4 130203Z 14003KT 29/10 A2989 RMK A01 T02930101  RH  030%=      5-min Rain = 0
KMC4 130204Z 14003KT 29/10 A2989 RMK A01 T02920103  RH  031%=      5-min Rain = 0
KMC4 130205Z 14003KT 29/10 A2989 RMK A01 T02910103  RH  031%=      5-min Rain = 0
KMC4 130206Z 15003KT 29/10 A2989 RMK A01 T02890102  RH  031%=      5-min Rain = 0
KMC4 130207Z 16003KT 29/10 A2989 RMK A01 T02880102  RH  031%=      5-min Rain = 0
KMC4 130208Z 16003KT 29/10 A2989 RMK A01 T02870102  RH  031%=      5-min Rain = 0
KMC4 130209Z 17003KT 29/10 A2989 RMK A01 T02870101  RH  031%=      5-min Rain = 0
KMC4 130210Z 16003KT 29/10 A2989 RMK A01 T02860101  RH  032%=      5-min Rain = 0
KMC4 130211Z 15003KT 29/10 A2989 RMK A01 T02850099  RH  031%=      5-min Rain = 0
KMC4 130212Z 14003KT 28/10 A2989 RMK A01 T02840100  RH  032%=      5-min Rain = 0
KMC4 130213Z 13003KT 28/10 A2989 RMK A01 T02840100  RH  032%=      5-min Rain = 0
KMC4 130214Z 13003KT 28/10 A2989 RMK A01 T02840100  RH  032%=      5-min Rain = 0
KMC4 130215Z 13002KT 28/10 A2989 RMK A01 T02830101  RH  032%=      5-min Rain = 0
KMC4 130216Z 13002KT 28/10 A2989 RMK A01 T02830101  RH  032%=      5-min Rain = 0
KMC4 130217Z 13002KT 28/10 A2989 RMK A01 T02830102  RH  032%=      5-min Rain = 0
KMC4 130218Z 13002KT 28/10 A2989 RMK A01 T02830102  RH  032%=      5-min Rain = 0
KMC4 130219Z 12002KT 28/10 A2989 RMK A01 T02830103  RH  032%=      5-min Rain = 0
KMC4 130220Z 12002KT 28/10 A2989 RMK A01 T02830101  RH  032%=      5-min Rain = 0
KMC4 130221Z 12002KT 28/10 A2989 RMK A01 T02840101  RH  032%=      5-min Rain = 0
KMC4 130222Z 13002KT 29/10 A2989 RMK A01 T02850102  RH  032%=      5-min Rain = 0
KMC4 130223Z 13002KT 29/10 A2989 RMK A01 T02850102  RH  032%=      5-min Rain = 0
KMC4 130224Z 13002KT 29/10 A2989 RMK A01 T02850102  RH  032%=      5-min Rain = 0
KMC4 130225Z 14001KT 29/10 A2989 RMK A01 T02850101  RH  032%=      5-min Rain = 0
KMC4 130226Z 14002KT 29/10 A2989 RMK A01 T02850102  RH  032%=      5-min Rain = 0
KMC4 130227Z 14001KT 28/10 A2989 RMK A01 T02840101  RH  032%=      5-min Rain = 0
KMC4 130228Z 14001KT 28/10 A2989 RMK A01 T02840101  RH  032%=      5-min Rain = 0
KMC4 130229Z 14001KT 28/10 A2989 RMK A01 T02840101  RH  032%=      5-min Rain = 0
KMC4 130230Z 14001KT 28/10 A2989 RMK A01 T02840101  RH  032%=      5-min Rain = 0
KMC4 130231Z 12002KT 28/10 A2989 RMK A01 T02840100  RH  032%=      5-min Rain = 0
KMC4 130232Z 13002KT 28/10 A2989 RMK A01 T02840100  RH  032%=      5-min Rain = 0
KMC4 130233Z 13002KT 29/10 A2989 RMK A01 T02850100  RH  032%=      5-min Rain = 0
KMC4 130234Z 13002KT 29/10 A2989 RMK A01 T02860100  RH  031%=      5-min Rain = 0
KMC4 130235Z 13002KT 29/10 A2989 RMK A01 T02870100  RH  031%=      5-min Rain = 0
KMC4 130236Z 13002KT 29/10 A2989 RMK A01 T02870100  RH  031%=      5-min Rain = 0
KMC4 130237Z 12002KT 29/10 A2989 RMK A01 T02870100  RH  031%=      5-min Rain = 0
KMC4 130238Z 12002KT 29/10 A2989 RMK A01 T02870101  RH  031%=      5-min Rain = 0
KMC4 130239Z 12002KT 29/10 A2989 RMK A01 T02870101  RH  031%=      5-min Rain = 0
KMC4 130240Z 12003KT 29/10 A2989 RMK A01 T02880101  RH  031%=      5-min Rain = 0
KMC4 130241Z 12003KT 29/10 A2989 RMK A01 T02880102  RH  031%=      5-min Rain = 0
KMC4 130242Z 12003KT 29/10 A2989 RMK A01 T02880102  RH  031%=      5-min Rain = 0
KMC4 130243Z 13003KT 29/10 A2989 RMK A01 T02880102  RH  031%=      5-min Rain = 0
KMC4 130244Z 13003KT 29/10 A2989 RMK A01 T02880102  RH  031%=      5-min Rain = 0
KMC4 130245Z 13003KT 29/10 A2989 RMK A01 T02870102  RH  032%=      5-min Rain = 0
KMC4 130246Z 12003KT 29/10 A2989 RMK A01 T02870102  RH  031%=      5-min Rain = 0
KMC4 130247Z 12003KT 29/10 A2989 RMK A01 T02870103  RH  032%=      5-min Rain = 0
KMC4 130248Z 11003KT 29/10 A299 RMK A01 T02870103  RH  032%=      5-min Rain = 0
KMC4 130249Z 11003KT 29/10 A299 RMK A01 T02870103  RH  032%=      5-min Rain = 0
KMC4 130250Z 10003KT 29/10 A299 RMK A01 T02870103  RH  032%=      5-min Rain = 0
KMC4 130251Z 10003KT 29/10 A299 RMK A01 T02870104  RH  032%=      5-min Rain = 0
KMC4 130252Z 09004KT 29/10 A299 RMK A01 T02860104  RH  032%=      5-min Rain = 0
KMC4 130253Z 10004KT 29/10 A299 RMK A01 T02850103  RH  032%=      5-min Rain = 0
KMC4 130254Z 09003KT 29/10 A299 RMK A01 T02850103  RH  032%=      5-min Rain = 0
KMC4 130255Z 08004KT 28/10 A299 RMK A01 T02840104  RH  032%=      5-min Rain = 0
KMC4 130256Z 08004KT 28/10 A299 RMK A01 T02830103  RH  033%=      5-min Rain = 0
KMC4 130257Z 08004KT 28/10 A299 RMK A01 T02830103  RH  033%=      5-min Rain = 0
KMC4 130258Z 08004KT 28/10 A299 RMK A01 T02820102  RH  032%=      5-min Rain = 0
KMC4 130259Z 08004KT 28/10 A299 RMK A01 T02820101  RH  032%=      5-min Rain = 0
KMC4 130300Z 08004KT 28/10 A299 RMK A01 T02820102  RH  032%=      5-min Rain = 0
KMC4 130301Z 08003KT 28/10 A299 RMK A01 T02820102  RH  033%=      5-min Rain = 0
KMC4 130302Z 07003KT 28/10 A299 RMK A01 T02820102  RH  032%=      5-min Rain = 0
KMC4 130303Z 07003KT 28/10 A299 RMK A01 T02820102  RH  032%=      5-min Rain = 0
KMC4 130304Z 07003KT 28/10 A299 RMK A01 T02820103  RH  033%=      5-min Rain = 0
KMC4 130305Z 07002KT 28/10 A299 RMK A01 T02820102  RH  033%=      5-min Rain = 0
KMC4 130306Z 06001KT 28/10 A299 RMK A01 T02820102  RH  033%=      5-min Rain = 0
KMC4 130307Z 07002KT 28/10 A299 RMK A01 T02830102  RH  032%=      5-min Rain = 0
KMC4 130308Z 06002KT 28/10 A299 RMK A01 T02830102  RH  032%=      5-min Rain = 0
KMC4 130309Z 06002KT 28/10 A299 RMK A01 T02830102  RH  032%=      5-min Rain = 0
KMC4 130310Z 07002KT 28/10 A299 RMK A01 T02830102  RH  032%=      5-min Rain = 0
KMC4 130311Z 08002KT 28/10 A299 RMK A01 T02830102  RH  032%=      5-min Rain = 0
KMC4 130312Z 09002KT 28/10 A299 RMK A01 T02840102  RH  032%=      5-min Rain = 0
KMC4 130313Z 10002KT 28/10 A299 RMK A01 T02840103  RH  032%=      5-min Rain = 0
KMC4 130314Z 09002KT 28/10 A299 RMK A01 T02840103  RH  032%=      5-min Rain = 0
KMC4 130315Z 09003KT 28/10 A299 RMK A01 T02840102  RH  032%=      5-min Rain = 0
KMC4 130316Z 09003KT 28/10 A299 RMK A01 T02840102  RH  032%=      5-min Rain = 0
KMC4 130317Z 09003KT 28/10 A299 RMK A01 T02840103  RH  032%=      5-min Rain = 0
KMC4 130318Z 08003KT 28/10 A299 RMK A01 T02840104  RH  033%=      5-min Rain = 0
KMC4 130319Z 08003KT 28/11 A299 RMK A01 T02830105  RH  033%=      5-min Rain = 0
KMC4 130320Z 08003KT 28/11 A299 RMK A01 T02820106  RH  033%=      5-min Rain = 0
KMC4 130321Z 08003KT 28/11 A299 RMK A01 T02810105  RH  033%=      5-min Rain = 0
KMC4 130322Z 07003KT 28/10 A299 RMK A01 T02810104  RH  033%=      5-min Rain = 0
KMC4 130323Z 08003KT 28/10 A299 RMK A01 T02810103  RH  033%=      5-min Rain = 0
KMC4 130324Z 07003KT 28/10 A299 RMK A01 T02810104  RH  033%=      5-min Rain = 0
KMC4 130325Z 08003KT 28/11 A299 RMK A01 T02810105  RH  033%=      5-min Rain = 0
KMC4 130326Z 08003KT 28/10 A299 RMK A01 T02810103  RH  033%=      5-min Rain = 0
KMC4 130327Z 08003KT 28/10 A299 RMK A01 T02810102  RH  033%=      5-min Rain = 0
KMC4 130328Z 08003KT 28/10 A299 RMK A01 T02820103  RH  033%=      5-min Rain = 0
KMC4 130329Z 08003KT 28/10 A299 RMK A01 T02820102  RH  033%=      5-min Rain = 0
KMC4 130330Z 08004KT 28/10 A299 RMK A01 T02820102  RH  033%=      5-min Rain = 0
KMC4 130331Z 08004KT 28/10 A299 RMK A01 T02820102  RH  032%=      5-min Rain = 0
KMC4 130332Z 08004KT 28/10 A299 RMK A01 T02820101  RH  032%=      5-min Rain = 0
KMC4 130333Z 09004KT 28/10 A299 RMK A01 T02820101  RH  032%=      5-min Rain = 0
KMC4 130334Z 09003KT 28/10 A299 RMK A01 T02810100  RH  032%=      5-min Rain = 0
KMC4 130335Z 09004KT 28/10 A299 RMK A01 T02820100  RH  032%=      5-min Rain = 0
KMC4 130336Z 09003KT 28/10 A299 RMK A01 T02820100  RH  032%=      5-min Rain = 0
KMC4 130337Z 09004KT 28/10 A299 RMK A01 T02830100  RH  032%=      5-min Rain = 0
KMC4 130338Z 08004KT 28/10 A299 RMK A01 T02830099  RH  032%=      5-min Rain = 0
KMC4 130339Z 08004KT 28/10 A299 RMK A01 T02830100  RH  032%=      5-min Rain = 0
KMC4 130340Z 08003KT 28/10 A299 RMK A01 T02830100  RH  032%=      5-min Rain = 0
KMC4 130341Z 08004KT 28/10 A299 RMK A01 T02830100  RH  032%=      5-min Rain = 0
KMC4 130342Z 08003KT 28/10 A299 RMK A01 T02830100  RH  032%=      5-min Rain = 0
KMC4 130343Z 07004KT 28/10 A299 RMK A01 T02830100  RH  032%=      5-min Rain = 0
KMC4 130344Z 07003KT 28/10 A299 RMK A01 T02830100  RH  032%=      5-min Rain = 0
KMC4 130345Z 08003KT 28/10 A299 RMK A01 T02830100  RH  032%=      5-min Rain = 0
KMC4 130346Z 08003KT 28/10 A299 RMK A01 T02830100  RH  032%=      5-min Rain = 0
KMC4 130347Z 08003KT 28/10 A299 RMK A01 T02830100  RH  032%=      5-min Rain = 0
KMC4 130348Z 09004KT 28/10 A299 RMK A01 T02830100  RH  032%=      5-min Rain = 0
KMC4 130349Z 09004KT 28/10 A299 RMK A01 T02830100  RH  032%=      5-min Rain = 0
KMC4 130350Z 09004KT 28/10 A299 RMK A01 T02840099  RH  032%=      5-min Rain = 0
KMC4 130351Z 09005KT 29/10 A299 RMK A01 T02850099  RH  031%=      5-min Rain = 0
KMC4 130352Z 09004KT 29/10 A299 RMK A01 T02860099  RH  031%=      5-min Rain = 0
KMC4 130353Z 09004KT 29/10 A299 RMK A01 T02870099  RH  031%=      5-min Rain = 0
KMC4 130354Z 09004KT 29/10 A299 RMK A01 T02870099  RH  031%=      5-min Rain = 0
KMC4 130355Z 09003KT 29/10 A299 RMK A01 T02870099  RH  031%=      5-min Rain = 0
KMC4 130356Z 09003KT 29/10 A299 RMK A01 T02870099  RH  031%=      5-min Rain = 0
KMC4 130357Z 08003KT 29/10 A299 RMK A01 T02870100  RH  031%=      5-min Rain = 0
KMC4 130358Z 08002KT 29/10 A299 RMK A01 T02860099  RH  031%=      5-min Rain = 0
KMC4 130359Z 07002KT 29/10 A299 RMK A01 T02860099  RH  031%=      5-min Rain = 0
KMC4 130400Z 07002KT 29/10 A299 RMK A01 T02860099  RH  031%=      5-min Rain = 0
KMC4 130401Z 08001KT 29/10 A299 RMK A01 T02860100  RH  031%=      5-min Rain = 0
KMC4 130402Z 07001KT 29/10 A299 RMK A01 T02860100  RH  031%=      5-min Rain = 0
KMC4 130403Z 00000KT 29/10 A299 RMK A01 T02850101  RH  032%=      5-min Rain = 0
KMC4 130404Z 09000KT 29/10 A299 RMK A01 T02850104  RH  032%=      5-min Rain = 0
KMC4 130405Z 09000KT 28/10 A299 RMK A01 T02830104  RH  033%=      5-min Rain = 0
KMC4 130406Z 00000KT 28/11 A299 RMK A01 T02820105  RH  033%=      5-min Rain = 0
KMC4 130407Z 00000KT 28/10 A299 RMK A01 T02800104  RH  034%=      5-min Rain = 0
KMC4 130408Z 04000KT 28/10 A299 RMK A01 T02770104  RH  034%=      5-min Rain = 0
KMC4 130409Z 04001KT 28/10 A299 RMK A01 T02750104  RH  034%=      5-min Rain = 0
KMC4 130410Z 04001KT 27/10 A299 RMK A01 T02740104  RH  034%=      5-min Rain = 0
KMC4 130411Z 04001KT 27/10 A299 RMK A01 T02740103  RH  034%=      5-min Rain = 0
KMC4 130412Z 03000KT 27/10 A299 RMK A01 T02730104  RH  035%=      5-min Rain = 0
KMC4 130413Z 00000KT 27/10 A299 RMK A01 T02730104  RH  035%=      5-min Rain = 0
KMC4 130414Z 00000KT 27/10 A299 RMK A01 T02730103  RH  035%=      5-min Rain = 0
KMC4 130415Z 04001KT 27/10 A299 RMK A01 T02730103  RH  035%=      5-min Rain = 0
KMC4 130416Z 04001KT 27/10 A299 RMK A01 T02730103  RH  035%=      5-min Rain = 0
KMC4 130417Z 04001KT 27/10 A299 RMK A01 T02720103  RH  035%=      5-min Rain = 0
KMC4 130418Z 06000KT 27/10 A299 RMK A01 T02720102  RH  034%=      5-min Rain = 0
KMC4 130419Z 10001KT 27/10 A299 RMK A01 T02720102  RH  034%=      5-min Rain = 0
KMC4 130420Z 07001KT 27/10 A299 RMK A01 T02730102  RH  034%=      5-min Rain = 0
KMC4 130421Z 08001KT 27/10 A299 RMK A01 T02730104  RH  035%=      5-min Rain = 0
KMC4 130422Z 11002KT 27/10 A299 RMK A01 T02730104  RH  035%=      5-min Rain = 0
KMC4 130423Z 11001KT 27/10 A299 RMK A01 T02730104  RH  035%=      5-min Rain = 0
KMC4 130424Z 11001KT 27/10 A299 RMK A01 T02730104  RH  035%=      5-min Rain = 0
KMC4 130425Z 12001KT 27/10 A299 RMK A01 T02720104  RH  035%=      5-min Rain = 0
KMC4 130426Z 12001KT 27/10 A299 RMK A01 T02720104  RH  035%=      5-min Rain = 0
KMC4 130427Z 16001KT 27/10 A299 RMK A01 T02730104  RH  035%=      5-min Rain = 0
KMC4 130428Z 15000KT 27/11 A299 RMK A01 T02730106  RH  035%=      5-min Rain = 0
KMC4 130429Z 12001KT 27/11 A299 RMK A01 T02720106  RH  035%=      5-min Rain = 0
KMC4 130430Z 11001KT 27/11 A299 RMK A01 T02710105  RH  035%=      5-min Rain = 0
KMC4 130431Z 10000KT 27/11 A299 RMK A01 T02700106  RH  036%=      5-min Rain = 0
KMC4 130432Z 00000KT 27/11 A299 RMK A01 T02690106  RH  036%=      5-min Rain = 0
KMC4 130433Z 00000KT 27/11 A299 RMK A01 T02690105  RH  036%=      5-min Rain = 0
KMC4 130434Z 10000KT 27/11 A299 RMK A01 T02690105  RH  036%=      5-min Rain = 0
KMC4 130435Z 10001KT 27/10 A299 RMK A01 T02690104  RH  036%=      5-min Rain = 0
KMC4 130436Z 09001KT 27/11 A299 RMK A01 T02690105  RH  036%=      5-min Rain = 0
KMC4 130437Z 09001KT 27/11 A299 RMK A01 T02690105  RH  036%=      5-min Rain = 0
KMC4 130438Z 09001KT 27/11 A299 RMK A01 T02690105  RH  036%=      5-min Rain = 0
KMC4 130439Z 09001KT 27/11 A299 RMK A01 T02680105  RH  036%=      5-min Rain = 0
KMC4 130440Z 12001KT 27/10 A299 RMK A01 T02680104  RH  036%=      5-min Rain = 0
KMC4 130441Z 13001KT 27/10 A299 RMK A01 T02680103  RH  036%=      5-min Rain = 0
KMC4 130442Z 11001KT 27/10 A299 RMK A01 T02680104  RH  036%=      5-min Rain = 0
KMC4 130443Z 11001KT 27/10 A299 RMK A01 T02680104  RH  036%=      5-min Rain = 0
KMC4 130444Z 11000KT 27/10 A299 RMK A01 T02680104  RH  036%=      5-min Rain = 0
KMC4 130445Z 00000KT 27/10 A299 RMK A01 T02680104  RH  036%=      5-min Rain = 0
KMC4 130446Z 00000KT 27/10 A299 RMK A01 T02680104  RH  036%=      5-min Rain = 0
KMC4 130447Z 00000KT 27/10 A299 RMK A01 T02680104  RH  036%=      5-min Rain = 0
KMC4 130448Z 00000KT 27/10 A299 RMK A01 T02680104  RH  036%=      5-min Rain = 0
KMC4 130449Z 00000KT 27/11 A299 RMK A01 T02680105  RH  036%=      5-min Rain = 0
KMC4 130450Z 00000KT 27/11 A299 RMK A01 T02680105  RH  036%=      5-min Rain = 0
KMC4 130451Z 00000KT 27/11 A299 RMK A01 T02690105  RH  036%=      5-min Rain = 0
KMC4 130452Z 00000KT 27/11 A299 RMK A01 T02690106  RH  036%=      5-min Rain = 0
KMC4 130453Z 00000KT 27/11 A299 RMK A01 T02690106  RH  036%=      5-min Rain = 0
KMC4 130454Z 00000KT 27/11 A299 RMK A01 T02680106  RH  036%=      5-min Rain = 0
KMC4 130455Z 00000KT 27/11 A299 RMK A01 T02680106  RH  036%=      5-min Rain = 0
KMC4 130456Z 00000KT 27/11 A299 RMK A01 T02680106  RH  036%=      5-min Rain = 0
KMC4 130457Z 00000KT 27/11 A299 RMK A01 T02670106  RH  036%=      5-min Rain = 0
KMC4 130458Z 00000KT 27/11 A299 RMK A01 T02680106  RH  036%=      5-min Rain = 0
KMC4 130459Z 00000KT 27/11 A299 RMK A01 T02670106  RH  036%=      5-min Rain = 0

Page generated in 0.1263 seconds.